Time,TemperatureF,DewpointF,PressureIn,WindDirection,WindDirectionDegrees,WindSpeedMPH,WindSpeedGustMPH,Humidity,HourlyPrecipIn,Conditions,Clouds,dailyrainin,SoftwareType,DateUTC
2013-01-31 00:04:00,41.5,39.3,30.31,East,97,0.0,2.0,92,0.00,,,0.00,Wunderground v.1.15,2013-01-31 08:04:00,
2013-01-31 00:06:00,41.5,39.3,30.31,East,97,0.0,2.0,92,0.00,,,0.00,Wunderground v.1.15,2013-01-31 08:06:00,
2013-01-31 00:07:00,41.5,39.3,30.31,East,97,0.0,2.0,92,0.00,,,0.00,Wunderground v.1.15,2013-01-31 08:07:00,
2013-01-31 00:12:00,41.5,39.6,30.31,East,97,0.0,2.0,93,0.00,,,0.00,Wunderground v.1.15,2013-01-31 08:12:00,
2013-01-31 00:18:00,41.2,39.1,30.31,East,96,0.0,2.0,92,0.00,,,0.00,Wunderground v.1.15,2013-01-31 08:18:00,
2013-01-31 00:19:00,41.1,39.0,30.31,East,97,0.0,2.0,92,0.00,,,0.00,Wunderground v.1.15,2013-01-31 08:19:00,
2013-01-31 00:25:00,40.7,38.6,30.31,East,97,0.0,2.0,92,0.00,,,0.00,Wunderground v.1.15,2013-01-31 08:25:00,
2013-01-31 00:26:00,40.7,38.8,30.31,East,97,0.0,2.0,93,0.00,,,0.00,Wunderground v.1.15,2013-01-31 08:26:00,
2013-01-31 00:31:00,40.6,38.7,30.31,East,97,0.0,2.0,93,0.00,,,0.00,Wunderground v.1.15,2013-01-31 08:31:00,
2013-01-31 00:32:00,40.6,38.7,30.31,East,97,0.0,2.0,93,0.00,,,0.00,Wunderground v.1.15,2013-01-31 08:32:00,
2013-01-31 00:35:00,40.5,38.6,30.31,East,97,0.0,2.0,93,0.00,,,0.00,Wunderground v.1.15,2013-01-31 08:35:00,
2013-01-31 00:37:00,40.5,38.6,30.31,East,97,0.0,2.0,93,0.00,,,0.00,Wunderground v.1.15,2013-01-31 08:37:00,
2013-01-31 00:38:00,40.4,38.5,30.31,East,97,0.0,2.0,93,0.00,,,0.00,Wunderground v.1.15,2013-01-31 08:38:00,
2013-01-31 00:44:00,40.5,38.6,30.31,East,97,0.0,2.0,93,0.00,,,0.00,Wunderground v.1.15,2013-01-31 08:44:00,
2013-01-31 00:45:00,40.5,38.9,30.31,East,97,0.0,2.0,94,0.00,,,0.00,Wunderground v.1.15,2013-01-31 08:45:00,
2013-01-31 00:46:00,40.5,38.9,30.31,East,97,0.0,2.0,94,0.00,,,0.00,Wunderground v.1.15,2013-01-31 08:46:00,
2013-01-31 00:47:00,40.4,38.8,30.31,East,97,0.0,2.0,94,0.00,,,0.00,Wunderground v.1.15,2013-01-31 08:47:00,
2013-01-31 00:52:00,40.4,38.5,30.31,East,97,0.0,2.0,93,0.00,,,0.00,Wunderground v.1.15,2013-01-31 08:52:00,
2013-01-31 00:54:00,40.3,38.7,30.31,East,97,0.0,2.0,94,0.00,,,0.00,Wunderground v.1.15,2013-01-31 08:54:00,
2013-01-31 01:00:00,40.3,38.7,30.31,East,97,0.0,2.0,94,0.00,,,0.00,Wunderground v.1.15,2013-01-31 09:00:00,
2013-01-31 01:01:00,40.4,38.8,30.31,East,96,0.0,2.0,94,0.00,,,0.00,Wunderground v.1.15,2013-01-31 09:01:00,
2013-01-31 01:06:00,40.9,39.6,30.31,East,96,2.0,5.0,95,0.00,,,0.00,Wunderground v.1.15,2013-01-31 09:06:00,
2013-01-31 01:07:00,40.8,39.2,30.31,East,96,2.0,5.0,94,0.00,,,0.00,Wunderground v.1.15,2013-01-31 09:07:00,
2013-01-31 01:11:00,40.4,38.8,30.31,East,95,2.0,2.0,94,0.00,,,0.00,Wunderground v.1.15,2013-01-31 09:11:00,
2013-01-31 01:16:00,40.1,38.2,30.31,East,95,1.0,2.0,93,0.00,,,0.00,Wunderground v.1.15,2013-01-31 09:16:00,
2013-01-31 01:17:00,40.0,38.1,30.31,East,95,0.0,2.0,93,0.00,,,0.00,Wunderground v.1.15,2013-01-31 09:17:00,
2013-01-31 01:18:00,39.9,38.0,30.31,East,96,0.0,2.0,93,0.00,,,0.00,Wunderground v.1.15,2013-01-31 09:18:00,
2013-01-31 01:23:00,39.7,38.1,30.31,East,95,0.0,2.0,94,0.00,,,0.00,Wunderground v.1.15,2013-01-31 09:23:00,
2013-01-31 01:25:00,39.6,38.0,30.31,East,96,0.0,3.0,94,0.00,,,0.00,Wunderground v.1.15,2013-01-31 09:25:00,
2013-01-31 01:29:00,39.7,38.1,30.31,East,95,0.0,3.0,94,0.00,,,0.00,Wunderground v.1.15,2013-01-31 09:29:00,
2013-01-31 01:30:00,39.7,38.1,30.31,East,95,0.0,2.0,94,0.00,,,0.00,Wunderground v.1.15,2013-01-31 09:30:00,
2013-01-31 01:32:00,39.7,38.1,30.31,East,95,0.0,2.0,94,0.00,,,0.00,Wunderground v.1.15,2013-01-31 09:32:00,
2013-01-31 01:33:00,39.7,38.1,30.31,East,96,0.0,2.0,94,0.00,,,0.00,Wunderground v.1.15,2013-01-31 09:33:00,
2013-01-31 01:36:00,39.7,38.1,30.31,East,95,0.0,2.0,94,0.00,,,0.00,Wunderground v.1.15,2013-01-31 09:36:00,
2013-01-31 01:38:00,39.7,38.1,30.31,East,96,0.0,2.0,94,0.00,,,0.00,Wunderground v.1.15,2013-01-31 09:38:00,
2013-01-31 01:43:00,39.6,38.0,30.31,East,95,0.0,2.0,94,0.00,,,0.00,Wunderground v.1.15,2013-01-31 09:43:00,
2013-01-31 01:45:00,39.5,37.9,30.31,East,96,0.0,2.0,94,0.00,,,0.00,Wunderground v.1.15,2013-01-31 09:45:00,
2013-01-31 01:48:00,39.5,37.9,30.31,East,95,0.0,2.0,94,0.00,,,0.00,Wunderground v.1.15,2013-01-31 09:48:00,
2013-01-31 01:49:00,39.4,37.8,30.31,East,95,0.0,2.0,94,0.00,,,0.00,Wunderground v.1.15,2013-01-31 09:49:00,
2013-01-31 01:53:00,39.1,37.5,30.31,East,95,0.0,2.0,94,0.00,,,0.00,Wunderground v.1.15,2013-01-31 09:53:00,
2013-01-31 01:54:00,39.0,37.1,30.31,East,95,0.0,2.0,93,0.00,,,0.00,Wunderground v.1.15,2013-01-31 09:54:00,
2013-01-31 01:56:00,38.9,37.3,30.31,East,96,0.0,2.0,94,0.00,,,0.00,Wunderground v.1.15,2013-01-31 09:56:00,
2013-01-31 01:58:00,39.2,37.9,30.31,East,95,0.0,2.0,95,0.00,,,0.00,Wunderground v.1.15,2013-01-31 09:58:00,
2013-01-31 02:00:00,39.3,38.0,30.31,East,95,0.0,2.0,95,0.00,,,0.00,Wunderground v.1.15,2013-01-31 10:00:00,
2013-01-31 02:02:00,39.4,38.1,30.31,East,95,0.0,2.0,95,0.00,,,0.00,Wunderground v.1.15,2013-01-31 10:02:00,
2013-01-31 02:04:00,39.6,38.3,30.31,East,96,0.0,2.0,95,0.00,,,0.00,Wunderground v.1.15,2013-01-31 10:04:00,
2013-01-31 02:07:00,39.7,38.4,30.31,East,96,0.0,2.0,95,0.00,,,0.00,Wunderground v.1.15,2013-01-31 10:07:00,
2013-01-31 02:08:00,39.8,38.5,30.31,East,96,0.0,2.0,95,0.00,,,0.00,Wunderground v.1.15,2013-01-31 10:08:00,
2013-01-31 02:12:00,39.8,38.5,30.31,East,96,0.0,2.0,95,0.00,,,0.00,Wunderground v.1.15,2013-01-31 10:12:00,
2013-01-31 02:13:00,39.8,38.5,30.31,East,97,0.0,2.0,95,0.00,,,0.00,Wunderground v.1.15,2013-01-31 10:13:00,
2013-01-31 02:15:00,39.7,38.1,30.31,East,95,0.0,2.0,94,0.00,,,0.00,Wunderground v.1.15,2013-01-31 10:15:00,
2013-01-31 02:18:00,39.7,38.4,30.31,East,95,0.0,2.0,95,0.00,,,0.00,Wunderground v.1.15,2013-01-31 10:18:00,
2013-01-31 02:21:00,39.3,37.7,30.31,East,96,0.0,2.0,94,0.00,,,0.00,Wunderground v.1.15,2013-01-31 10:21:00,
2013-01-31 02:22:00,39.2,37.6,30.31,East,96,0.0,2.0,94,0.00,,,0.00,Wunderground v.1.15,2013-01-31 10:22:00,
2013-01-31 02:24:00,38.9,37.3,30.31,East,96,0.0,2.0,94,0.00,,,0.00,Wunderground v.1.15,2013-01-31 10:24:00,
2013-01-31 02:25:00,38.8,36.9,30.31,East,95,0.0,2.0,93,0.00,,,0.00,Wunderground v.1.15,2013-01-31 10:25:00,
2013-01-31 02:31:00,38.6,37.0,30.31,East,95,0.0,2.0,94,0.00,,,0.00,Wunderground v.1.15,2013-01-31 10:31:00,
2013-01-31 02:34:00,38.7,37.4,30.31,East,96,0.0,2.0,95,0.00,,,0.00,Wunderground v.1.15,2013-01-31 10:34:00,
2013-01-31 02:35:00,38.8,37.5,30.31,East,95,0.0,2.0,95,0.00,,,0.00,Wunderground v.1.15,2013-01-31 10:35:00,
2013-01-31 02:37:00,38.9,37.6,30.31,East,96,0.0,2.0,95,0.00,,,0.00,Wunderground v.1.15,2013-01-31 10:37:00,
2013-01-31 02:39:00,38.9,37.6,30.31,East,96,0.0,2.0,95,0.00,,,0.00,Wunderground v.1.15,2013-01-31 10:39:00,
2013-01-31 02:42:00,38.9,37.3,30.31,East,96,0.0,2.0,94,0.00,,,0.00,Wunderground v.1.15,2013-01-31 10:42:00,
2013-01-31 02:43:00,38.8,37.2,30.31,East,96,0.0,2.0,94,0.00,,,0.00,Wunderground v.1.15,2013-01-31 10:43:00,
2013-01-31 02:49:00,38.6,37.0,30.30,East,95,0.0,2.0,94,0.00,,,0.00,Wunderground v.1.15,2013-01-31 10:49:00,
2013-01-31 02:50:00,38.7,37.4,30.30,East,96,0.0,2.0,95,0.00,,,0.00,Wunderground v.1.15,2013-01-31 10:50:00,
2013-01-31 02:51:00,38.7,37.4,30.30,East,96,1.0,2.0,95,0.00,,,0.00,Wunderground v.1.15,2013-01-31 10:51:00,
2013-01-31 02:53:00,38.7,37.4,30.30,East,95,1.0,2.0,95,0.00,,,0.00,Wunderground v.1.15,2013-01-31 10:53:00,
2013-01-31 02:56:00,38.6,37.3,30.30,East,95,1.0,2.0,95,0.00,,,0.00,Wunderground v.1.15,2013-01-31 10:56:00,
2013-01-31 02:57:00,38.5,37.2,30.30,East,96,1.0,2.0,95,0.00,,,0.00,Wunderground v.1.15,2013-01-31 10:57:00,
2013-01-31 02:59:00,38.4,37.1,30.30,East,96,1.0,2.0,95,0.00,,,0.00,Wunderground v.1.15,2013-01-31 10:59:00,
2013-01-31 03:02:00,38.3,37.0,30.30,East,96,1.0,2.0,95,0.00,,,0.00,Wunderground v.1.15,2013-01-31 11:02:00,
2013-01-31 03:04:00,38.2,36.6,30.30,East,95,0.0,2.0,94,0.00,,,0.00,Wunderground v.1.15,2013-01-31 11:04:00,
2013-01-31 03:06:00,38.1,36.5,30.30,East,95,0.0,2.0,94,0.00,,,0.00,Wunderground v.1.15,2013-01-31 11:06:00,
2013-01-31 03:10:00,38.1,36.8,30.30,East,96,0.0,2.0,95,0.00,,,0.00,Wunderground v.1.15,2013-01-31 11:10:00,
2013-01-31 03:12:00,38.1,36.8,30.30,East,96,0.0,2.0,95,0.00,,,0.00,Wunderground v.1.15,2013-01-31 11:12:00,
2013-01-31 03:13:00,38.0,36.7,30.30,East,96,0.0,2.0,95,0.00,,,0.00,Wunderground v.1.15,2013-01-31 11:13:00,
2013-01-31 03:17:00,37.9,36.6,30.30,East,96,0.0,2.0,95,0.00,,,0.00,Wunderground v.1.15,2013-01-31 11:17:00,
2013-01-31 03:18:00,37.9,36.6,30.30,East,95,0.0,2.0,95,0.00,,,0.00,Wunderground v.1.15,2013-01-31 11:18:00,
2013-01-31 03:19:00,37.9,36.6,30.30,East,96,0.0,2.0,95,0.00,,,0.00,Wunderground v.1.15,2013-01-31 11:19:00,
2013-01-31 03:21:00,37.8,36.5,30.30,East,96,0.0,2.0,95,0.00,,,0.00,Wunderground v.1.15,2013-01-31 11:21:00,
2013-01-31 03:24:00,37.7,36.4,30.30,East,96,0.0,2.0,95,0.00,,,0.00,Wunderground v.1.15,2013-01-31 11:24:00,
2013-01-31 03:28:00,38.0,36.7,30.30,East,96,0.0,2.0,95,0.00,,,0.00,Wunderground v.1.15,2013-01-31 11:28:00,
2013-01-31 03:29:00,38.0,36.7,30.30,East,96,0.0,2.0,95,0.00,,,0.00,Wunderground v.1.15,2013-01-31 11:29:00,
2013-01-31 03:33:00,37.9,36.6,30.30,East,96,0.0,2.0,95,0.00,,,0.00,Wunderground v.1.15,2013-01-31 11:33:00,
2013-01-31 03:38:00,37.7,36.4,30.30,East,95,0.0,2.0,95,0.00,,,0.00,Wunderground v.1.15,2013-01-31 11:38:00,
2013-01-31 03:39:00,37.7,36.4,30.30,East,95,0.0,2.0,95,0.00,,,0.00,Wunderground v.1.15,2013-01-31 11:39:00,
2013-01-31 03:42:00,37.5,36.2,30.30,East,96,0.0,2.0,95,0.00,,,0.00,Wunderground v.1.15,2013-01-31 11:42:00,
2013-01-31 03:45:00,37.5,36.2,30.30,East,96,0.0,2.0,95,0.00,,,0.00,Wunderground v.1.15,2013-01-31 11:45:00,
2013-01-31 03:47:00,37.5,36.2,30.30,East,96,0.0,2.0,95,0.00,,,0.00,Wunderground v.1.15,2013-01-31 11:47:00,
2013-01-31 03:49:00,37.4,36.1,30.30,East,97,0.0,2.0,95,0.00,,,0.00,Wunderground v.1.15,2013-01-31 11:49:00,
2013-01-31 03:53:00,37.5,36.2,30.30,East,96,0.0,2.0,95,0.00,,,0.00,Wunderground v.1.15,2013-01-31 11:53:00,
2013-01-31 03:54:00,37.5,36.2,30.30,East,96,0.0,2.0,95,0.00,,,0.00,Wunderground v.1.15,2013-01-31 11:54:00,
2013-01-31 03:56:00,37.6,36.3,30.30,East,96,0.0,2.0,95,0.00,,,0.00,Wunderground v.1.15,2013-01-31 11:56:00,
2013-01-31 03:59:00,37.6,36.6,30.30,East,96,0.0,2.0,96,0.00,,,0.00,Wunderground v.1.15,2013-01-31 11:59:00,
2013-01-31 04:01:00,37.5,36.5,30.30,East,96,0.0,2.0,96,0.00,,,0.00,Wunderground v.1.15,2013-01-31 12:01:00,
2013-01-31 04:03:00,37.5,36.2,30.30,East,96,0.0,2.0,95,0.00,,,0.00,Wunderground v.1.15,2013-01-31 12:03:00,
2013-01-31 04:04:00,37.5,36.2,30.30,East,95,0.0,2.0,95,0.00,,,0.00,Wunderground v.1.15,2013-01-31 12:04:00,
2013-01-31 04:10:00,37.3,36.0,30.30,East,95,0.0,2.0,95,0.00,,,0.00,Wunderground v.1.15,2013-01-31 12:10:00,
2013-01-31 04:14:00,37.3,36.3,30.30,East,95,0.0,2.0,96,0.00,,,0.00,Wunderground v.1.15,2013-01-31 12:14:00,
2013-01-31 04:15:00,37.3,36.3,30.30,East,95,0.0,2.0,96,0.00,,,0.00,Wunderground v.1.15,2013-01-31 12:15:00,
2013-01-31 04:18:00,37.5,36.5,30.29,East,95,0.0,2.0,96,0.00,,,0.00,Wunderground v.1.15,2013-01-31 12:18:00,
2013-01-31 04:20:00,37.7,36.7,30.29,East,96,0.0,2.0,96,0.00,,,0.00,Wunderground v.1.15,2013-01-31 12:20:00,
2013-01-31 04:22:00,37.8,36.8,30.29,East,96,0.0,2.0,96,0.00,,,0.00,Wunderground v.1.15,2013-01-31 12:22:00,
2013-01-31 04:23:00,37.9,36.9,30.29,East,96,0.0,2.0,96,0.00,,,0.00,Wunderground v.1.15,2013-01-31 12:23:00,
2013-01-31 04:27:00,38.0,37.0,30.29,East,95,0.0,2.0,96,0.00,,,0.00,Wunderground v.1.15,2013-01-31 12:27:00,
2013-01-31 04:29:00,38.0,37.0,30.29,East,95,0.0,2.0,96,0.00,,,0.00,Wunderground v.1.15,2013-01-31 12:29:00,
2013-01-31 04:30:00,37.9,36.9,30.29,East,96,0.0,2.0,96,0.00,,,0.00,Wunderground v.1.15,2013-01-31 12:30:00,
2013-01-31 04:33:00,37.8,36.8,30.29,East,96,0.0,2.0,96,0.00,,,0.00,Wunderground v.1.15,2013-01-31 12:33:00,
2013-01-31 04:37:00,37.7,36.7,30.29,East,96,0.0,2.0,96,0.00,,,0.00,Wunderground v.1.15,2013-01-31 12:37:00,
2013-01-31 04:39:00,37.6,36.6,30.30,East,95,0.0,2.0,96,0.00,,,0.00,Wunderground v.1.15,2013-01-31 12:39:00,
2013-01-31 04:40:00,37.5,36.5,30.30,East,96,0.0,2.0,96,0.00,,,0.00,Wunderground v.1.15,2013-01-31 12:40:00,
2013-01-31 04:43:00,37.3,36.0,30.30,East,95,0.0,2.0,95,0.00,,,0.00,Wunderground v.1.15,2013-01-31 12:43:00,
2013-01-31 04:44:00,37.3,36.0,30.30,East,95,0.0,2.0,95,0.00,,,0.00,Wunderground v.1.15,2013-01-31 12:44:00,
2013-01-31 04:47:00,37.0,35.7,30.30,East,96,0.0,2.0,95,0.00,,,0.00,Wunderground v.1.15,2013-01-31 12:47:00,
2013-01-31 04:49:00,36.9,35.6,30.30,East,96,0.0,2.0,95,0.00,,,0.00,Wunderground v.1.15,2013-01-31 12:49:00,
2013-01-31 04:52:00,36.7,35.4,30.30,East,96,0.0,2.0,95,0.00,,,0.00,Wunderground v.1.15,2013-01-31 12:52:00,
2013-01-31 04:53:00,36.7,35.4,30.30,East,96,0.0,2.0,95,0.00,,,0.00,Wunderground v.1.15,2013-01-31 12:53:00,
2013-01-31 04:59:00,36.6,35.6,30.30,East,97,0.0,2.0,96,0.00,,,0.00,Wunderground v.1.15,2013-01-31 12:59:00,
2013-01-31 05:00:00,36.7,35.7,30.30,East,97,0.0,2.0,96,0.00,,,0.00,Wunderground v.1.15,2013-01-31 13:00:00,
2013-01-31 05:02:00,36.8,35.8,30.30,East,96,0.0,2.0,96,0.00,,,0.00,Wunderground v.1.15,2013-01-31 13:02:00,
2013-01-31 05:04:00,37.2,36.2,30.30,East,96,1.0,3.0,96,0.00,,,0.00,Wunderground v.1.15,2013-01-31 13:04:00,
2013-01-31 05:07:00,37.5,36.5,30.30,East,95,1.0,3.0,96,0.00,,,0.00,Wunderground v.1.15,2013-01-31 13:07:00,
2013-01-31 05:08:00,37.5,36.5,30.30,East,97,1.0,3.0,96,0.00,,,0.00,Wunderground v.1.15,2013-01-31 13:08:00,
2013-01-31 05:09:00,37.5,36.5,30.30,East,95,1.0,3.0,96,0.00,,,0.00,Wunderground v.1.15,2013-01-31 13:09:00,
2013-01-31 05:13:00,37.3,36.3,30.31,East,95,1.0,2.0,96,0.00,,,0.00,Wunderground v.1.15,2013-01-31 13:13:00,
2013-01-31 05:14:00,37.3,36.3,30.31,East,95,1.0,2.0,96,0.00,,,0.00,Wunderground v.1.15,2013-01-31 13:14:00,
2013-01-31 05:17:00,37.2,36.2,30.31,East,95,1.0,2.0,96,0.00,,,0.00,Wunderground v.1.15,2013-01-31 13:17:00,
2013-01-31 05:18:00,37.2,36.2,30.31,East,96,0.0,2.0,96,0.00,,,0.00,Wunderground v.1.15,2013-01-31 13:18:00,
2013-01-31 05:19:00,37.2,36.2,30.31,East,96,0.0,2.0,96,0.00,,,0.00,Wunderground v.1.15,2013-01-31 13:19:00,
2013-01-31 05:23:00,36.8,35.5,30.31,East,96,0.0,2.0,95,0.00,,,0.00,Wunderground v.1.15,2013-01-31 13:23:00,
2013-01-31 05:26:00,36.5,35.2,30.31,East,97,0.0,2.0,95,0.00,,,0.00,Wunderground v.1.15,2013-01-31 13:26:00,
2013-01-31 05:29:00,36.4,35.1,30.31,East,95,0.0,2.0,95,0.00,,,0.00,Wunderground v.1.15,2013-01-31 13:29:00,
2013-01-31 05:30:00,36.3,35.0,30.31,East,96,0.0,2.0,95,0.00,,,0.00,Wunderground v.1.15,2013-01-31 13:30:00,
2013-01-31 05:33:00,36.2,34.9,30.31,East,95,0.0,2.0,95,0.00,,,0.00,Wunderground v.1.15,2013-01-31 13:33:00,
2013-01-31 05:35:00,36.2,34.9,30.30,East,95,0.0,2.0,95,0.00,,,0.00,Wunderground v.1.15,2013-01-31 13:35:00,
2013-01-31 05:37:00,36.4,35.4,30.30,East,95,0.0,2.0,96,0.00,,,0.00,Wunderground v.1.15,2013-01-31 13:37:00,
2013-01-31 05:38:00,36.6,35.6,30.30,East,97,0.0,2.0,96,0.00,,,0.00,Wunderground v.1.15,2013-01-31 13:38:00,
2013-01-31 05:42:00,36.9,36.1,30.30,East,96,0.0,2.0,97,0.00,,,0.00,Wunderground v.1.15,2013-01-31 13:42:00,
2013-01-31 05:45:00,36.8,35.8,30.30,East,96,0.0,2.0,96,0.00,,,0.00,Wunderground v.1.15,2013-01-31 13:45:00,
2013-01-31 05:46:00,36.8,35.8,30.30,East,97,0.0,2.0,96,0.00,,,0.00,Wunderground v.1.15,2013-01-31 13:46:00,
2013-01-31 05:48:00,36.7,35.7,30.30,East,96,0.0,2.0,96,0.00,,,0.00,Wunderground v.1.15,2013-01-31 13:48:00,
2013-01-31 05:49:00,36.6,35.6,30.30,East,96,0.0,2.0,96,0.00,,,0.00,Wunderground v.1.15,2013-01-31 13:49:00,
2013-01-31 05:53:00,36.4,35.4,30.30,East,95,0.0,2.0,96,0.00,,,0.00,Wunderground v.1.15,2013-01-31 13:53:00,
2013-01-31 05:54:00,36.4,35.4,30.30,East,95,0.0,2.0,96,0.00,,,0.00,Wunderground v.1.15,2013-01-31 13:54:00,
2013-01-31 06:00:00,36.2,35.2,30.31,East,97,0.0,2.0,96,0.00,,,0.00,Wunderground v.1.15,2013-01-31 14:00:00,
2013-01-31 06:01:00,36.2,35.2,30.31,East,96,0.0,2.0,96,0.00,,,0.00,Wunderground v.1.15,2013-01-31 14:01:00,
2013-01-31 06:07:00,36.3,35.3,30.31,East,96,0.0,2.0,96,0.00,,,0.00,Wunderground v.1.15,2013-01-31 14:07:00,
2013-01-31 06:08:00,36.3,35.3,30.31,East,97,0.0,2.0,96,0.00,,,0.00,Wunderground v.1.15,2013-01-31 14:08:00,
2013-01-31 06:10:00,36.4,35.4,30.31,East,95,0.0,2.0,96,0.00,,,0.00,Wunderground v.1.15,2013-01-31 14:10:00,
2013-01-31 06:13:00,36.6,35.8,30.31,East,95,0.0,2.0,97,0.00,,,0.00,Wunderground v.1.15,2013-01-31 14:13:00,
2013-01-31 06:19:00,36.7,35.7,30.31,East,95,0.0,2.0,96,0.00,,,0.00,Wunderground v.1.15,2013-01-31 14:19:00,
2013-01-31 06:20:00,36.7,35.7,30.31,East,95,0.0,2.0,96,0.00,,,0.00,Wunderground v.1.15,2013-01-31 14:20:00,
2013-01-31 06:21:00,36.8,35.8,30.31,East,97,0.0,2.0,96,0.00,,,0.00,Wunderground v.1.15,2013-01-31 14:21:00,
2013-01-31 06:26:00,36.7,35.7,30.31,East,97,0.0,2.0,96,0.00,,,0.00,Wunderground v.1.15,2013-01-31 14:26:00,
2013-01-31 06:27:00,36.7,35.7,30.31,East,97,0.0,2.0,96,0.00,,,0.00,Wunderground v.1.15,2013-01-31 14:27:00,
2013-01-31 06:30:00,36.6,35.6,30.31,East,95,0.0,2.0,96,0.00,,,0.00,Wunderground v.1.15,2013-01-31 14:30:00,
2013-01-31 06:31:00,36.6,35.6,30.31,East,97,0.0,2.0,96,0.00,,,0.00,Wunderground v.1.15,2013-01-31 14:31:00,
2013-01-31 06:32:00,36.6,35.6,30.31,East,95,0.0,2.0,96,0.00,,,0.00,Wunderground v.1.15,2013-01-31 14:32:00,
2013-01-31 06:34:00,36.4,35.4,30.31,East,96,1.0,2.0,96,0.00,,,0.00,Wunderground v.1.15,2013-01-31 14:34:00,
2013-01-31 06:40:00,35.9,34.9,30.31,East,97,1.0,1.0,96,0.00,,,0.00,Wunderground v.1.15,2013-01-31 14:40:00,
2013-01-31 06:41:00,35.8,34.8,30.31,East,95,1.0,2.0,96,0.00,,,0.00,Wunderground v.1.15,2013-01-31 14:41:00,
2013-01-31 06:47:00,35.8,34.8,30.31,East,96,0.0,2.0,96,0.00,,,0.00,Wunderground v.1.15,2013-01-31 14:47:00,
2013-01-31 06:48:00,35.7,34.7,30.31,East,95,0.0,2.0,96,0.00,,,0.00,Wunderground v.1.15,2013-01-31 14:48:00,
2013-01-31 06:49:00,35.7,34.7,30.31,East,96,0.0,2.0,96,0.00,,,0.00,Wunderground v.1.15,2013-01-31 14:49:00,
2013-01-31 06:51:00,35.6,34.6,30.31,East,96,0.0,2.0,96,0.00,,,0.00,Wunderground v.1.15,2013-01-31 14:51:00,
2013-01-31 06:55:00,35.6,34.6,30.31,East,95,0.0,2.0,96,0.00,,,0.00,Wunderground v.1.15,2013-01-31 14:55:00,
2013-01-31 06:58:00,35.5,34.5,30.31,East,97,0.0,2.0,96,0.00,,,0.00,Wunderground v.1.15,2013-01-31 14:58:00,
2013-01-31 07:01:00,35.3,34.3,30.31,East,97,0.0,2.0,96,0.00,,,0.00,Wunderground v.1.15,2013-01-31 15:01:00,
2013-01-31 07:03:00,35.3,34.3,30.32,East,95,0.0,2.0,96,0.00,,,0.00,Wunderground v.1.15,2013-01-31 15:03:00,
2013-01-31 07:06:00,35.2,34.2,30.32,East,95,0.0,2.0,96,0.00,,,0.00,Wunderground v.1.15,2013-01-31 15:06:00,
2013-01-31 07:07:00,35.2,34.2,30.31,East,95,0.0,2.0,96,0.00,,,0.00,Wunderground v.1.15,2013-01-31 15:07:00,
2013-01-31 07:09:00,35.2,34.2,30.32,East,97,0.0,2.0,96,0.00,,,0.00,Wunderground v.1.15,2013-01-31 15:09:00,
2013-01-31 07:14:00,35.2,34.2,30.32,East,95,0.0,2.0,96,0.00,,,0.00,Wunderground v.1.15,2013-01-31 15:14:00,
2013-01-31 07:16:00,35.2,34.2,30.32,East,97,0.0,2.0,96,0.00,,,0.00,Wunderground v.1.15,2013-01-31 15:16:00,
2013-01-31 07:17:00,35.2,34.2,30.32,East,95,0.0,2.0,96,0.00,,,0.00,Wunderground v.1.15,2013-01-31 15:17:00,
2013-01-31 07:21:00,35.1,34.1,30.32,East,95,0.0,2.0,96,0.00,,,0.00,Wunderground v.1.15,2013-01-31 15:21:00,
2013-01-31 07:22:00,35.1,34.1,30.32,East,95,0.0,2.0,96,0.00,,,0.00,Wunderground v.1.15,2013-01-31 15:22:00,
2013-01-31 07:23:00,35.2,34.2,30.32,East,95,0.0,2.0,96,0.00,,,0.00,Wunderground v.1.15,2013-01-31 15:23:00,
2013-01-31 07:28:00,35.5,34.7,30.32,East,94,0.0,2.0,97,0.00,,,0.00,Wunderground v.1.15,2013-01-31 15:28:00,
2013-01-31 07:29:00,35.6,34.8,30.32,East,94,0.0,2.0,97,0.00,,,0.00,Wunderground v.1.15,2013-01-31 15:29:00,
2013-01-31 07:32:00,35.8,35.0,30.32,East,95,0.0,2.0,97,0.00,,,0.00,Wunderground v.1.15,2013-01-31 15:32:00,
2013-01-31 07:34:00,35.9,35.1,30.32,East,95,0.0,2.0,97,0.00,,,0.00,Wunderground v.1.15,2013-01-31 15:34:00,
2013-01-31 07:35:00,36.0,35.2,30.32,East,95,0.0,2.0,97,0.00,,,0.00,Wunderground v.1.15,2013-01-31 15:35:00,
2013-01-31 07:36:00,36.1,35.3,30.32,East,95,0.0,2.0,97,0.00,,,0.00,Wunderground v.1.15,2013-01-31 15:36:00,
2013-01-31 07:41:00,36.3,35.5,30.32,East,95,0.0,2.0,97,0.00,,,0.00,Wunderground v.1.15,2013-01-31 15:41:00,
2013-01-31 07:42:00,36.3,35.5,30.32,East,95,0.0,2.0,97,0.00,,,0.00,Wunderground v.1.15,2013-01-31 15:42:00,
2013-01-31 07:48:00,36.4,35.4,30.32,East,95,1.0,2.0,96,0.00,,,0.00,Wunderground v.1.15,2013-01-31 15:48:00,
2013-01-31 07:50:00,36.5,35.5,30.32,East,95,1.0,2.0,96,0.00,,,0.00,Wunderground v.1.15,2013-01-31 15:50:00,
2013-01-31 07:51:00,36.5,35.7,30.32,East,95,1.0,2.0,97,0.00,,,0.00,Wunderground v.1.15,2013-01-31 15:51:00,
2013-01-31 07:54:00,36.6,35.8,30.31,East,95,1.0,2.0,97,0.00,,,0.00,Wunderground v.1.15,2013-01-31 15:54:00,
2013-01-31 07:58:00,36.8,36.0,30.31,East,96,0.0,2.0,97,0.00,,,0.00,Wunderground v.1.15,2013-01-31 15:58:00,
2013-01-31 08:01:00,36.9,36.1,30.32,East,95,0.0,2.0,97,0.00,,,0.00,Wunderground v.1.15,2013-01-31 16:01:00,
2013-01-31 08:03:00,37.1,36.3,30.32,East,95,0.0,2.0,97,0.00,,,0.00,Wunderground v.1.15,2013-01-31 16:03:00,
2013-01-31 08:04:00,37.2,36.4,30.31,East,96,0.0,2.0,97,0.00,,,0.00,Wunderground v.1.15,2013-01-31 16:04:00,
2013-01-31 08:08:00,37.6,36.8,30.31,East,96,0.0,2.0,97,0.00,,,0.00,Wunderground v.1.15,2013-01-31 16:08:00,
2013-01-31 08:09:00,37.8,37.0,30.31,East,95,0.0,2.0,97,0.00,,,0.00,Wunderground v.1.15,2013-01-31 16:09:00,
2013-01-31 08:10:00,37.9,37.1,30.31,East,96,0.0,2.0,97,0.00,,,0.00,Wunderground v.1.15,2013-01-31 16:10:00,
2013-01-31 08:11:00,38.0,37.2,30.31,East,96,0.0,2.0,97,0.00,,,0.00,Wunderground v.1.15,2013-01-31 16:11:00,
2013-01-31 08:14:00,38.5,38.0,30.31,East,96,0.0,2.0,98,0.00,,,0.00,Wunderground v.1.15,2013-01-31 16:14:00,
2013-01-31 08:17:00,38.6,37.8,30.31,East,96,0.0,2.0,97,0.00,,,0.00,Wunderground v.1.15,2013-01-31 16:17:00,
2013-01-31 08:18:00,38.7,37.9,30.32,East,96,0.0,2.0,97,0.00,,,0.00,Wunderground v.1.15,2013-01-31 16:18:00,
2013-01-31 08:20:00,38.9,38.1,30.32,East,95,0.0,2.0,97,0.00,,,0.00,Wunderground v.1.15,2013-01-31 16:20:00,
2013-01-31 08:22:00,39.1,38.3,30.32,East,95,0.0,2.0,97,0.00,,,0.00,Wunderground v.1.15,2013-01-31 16:22:00,
2013-01-31 08:23:00,39.2,38.4,30.32,East,96,0.0,2.0,97,0.00,,,0.00,Wunderground v.1.15,2013-01-31 16:23:00,
2013-01-31 08:29:00,39.6,38.8,30.32,East,95,0.0,2.0,97,0.00,,,0.00,Wunderground v.1.15,2013-01-31 16:29:00,
2013-01-31 08:32:00,40.1,39.3,30.32,East,96,0.0,2.0,97,0.00,,,0.00,Wunderground v.1.15,2013-01-31 16:32:00,
2013-01-31 08:34:00,40.5,39.7,30.32,East,95,0.0,2.0,97,0.00,,,0.00,Wunderground v.1.15,2013-01-31 16:34:00,
2013-01-31 08:40:00,41.7,40.9,30.32,East,96,0.0,2.0,97,0.00,,,0.00,Wunderground v.1.15,2013-01-31 16:40:00,
2013-01-31 08:41:00,41.9,41.1,30.32,East,96,0.0,2.0,97,0.00,,,0.00,Wunderground v.1.15,2013-01-31 16:41:00,
2013-01-31 08:44:00,42.4,41.6,30.32,East,96,0.0,2.0,97,0.00,,,0.00,Wunderground v.1.15,2013-01-31 16:44:00,
2013-01-31 08:45:00,42.5,41.4,30.32,East,96,0.0,2.0,96,0.00,,,0.00,Wunderground v.1.15,2013-01-31 16:45:00,
2013-01-31 08:51:00,43.2,42.1,30.32,East,96,0.0,2.0,96,0.00,,,0.00,Wunderground v.1.15,2013-01-31 16:51:00,
2013-01-31 08:52:00,43.4,42.1,30.33,East,96,0.0,2.0,95,0.00,,,0.00,Wunderground v.1.15,2013-01-31 16:52:00,
2013-01-31 08:54:00,43.7,42.4,30.32,East,95,0.0,2.0,95,0.00,,,0.00,Wunderground v.1.15,2013-01-31 16:54:00,
2013-01-31 08:57:00,44.2,42.9,30.33,East,96,0.0,2.0,95,0.00,,,0.00,Wunderground v.1.15,2013-01-31 16:57:00,
2013-01-31 09:00:00,44.5,42.9,30.33,East,96,0.0,2.0,94,0.00,,,0.00,Wunderground v.1.15,2013-01-31 17:00:00,
2013-01-31 09:03:00,44.8,42.9,30.33,East,96,0.0,2.0,93,0.00,,,0.00,Wunderground v.1.15,2013-01-31 17:03:00,
2013-01-31 09:04:00,44.9,43.0,30.33,East,96,0.0,2.0,93,0.00,,,0.00,Wunderground v.1.15,2013-01-31 17:04:00,
2013-01-31 09:07:00,45.1,43.2,30.33,East,96,0.0,2.0,93,0.00,,,0.00,Wunderground v.1.15,2013-01-31 17:07:00,
2013-01-31 09:09:00,45.4,43.2,30.33,East,96,0.0,2.0,92,0.00,,,0.00,Wunderground v.1.15,2013-01-31 17:09:00,
2013-01-31 09:13:00,45.9,43.4,30.33,East,96,0.0,2.0,91,0.00,,,0.00,Wunderground v.1.15,2013-01-31 17:13:00,
2013-01-31 09:16:00,46.3,43.8,30.33,East,95,0.0,2.0,91,0.00,,,0.00,Wunderground v.1.15,2013-01-31 17:16:00,
2013-01-31 09:20:00,46.8,44.0,30.33,East,96,0.0,2.0,90,0.00,,,0.00,Wunderground v.1.15,2013-01-31 17:20:00,
2013-01-31 09:22:00,47.0,44.2,30.32,East,96,0.0,2.0,90,0.00,,,0.00,Wunderground v.1.15,2013-01-31 17:22:00,
2013-01-31 09:25:00,47.2,44.1,30.32,East,96,0.0,2.0,89,0.00,,,0.00,Wunderground v.1.15,2013-01-31 17:25:00,
2013-01-31 09:27:00,47.3,44.2,30.32,East,96,0.0,2.0,89,0.00,,,0.00,Wunderground v.1.15,2013-01-31 17:27:00,
2013-01-31 09:29:00,47.4,44.3,30.32,East,96,0.0,2.0,89,0.00,,,0.00,Wunderground v.1.15,2013-01-31 17:29:00,
2013-01-31 09:31:00,47.6,44.5,30.32,East,96,0.0,2.0,89,0.00,,,0.00,Wunderground v.1.15,2013-01-31 17:31:00,
2013-01-31 09:34:00,48.0,44.6,30.32,East,96,0.0,2.0,88,0.00,,,0.00,Wunderground v.1.15,2013-01-31 17:34:00,
2013-01-31 09:38:00,48.4,44.7,30.32,East,96,0.0,2.0,87,0.00,,,0.00,Wunderground v.1.15,2013-01-31 17:38:00,
2013-01-31 09:41:00,48.8,45.4,30.32,East,96,0.0,2.0,88,0.00,,,0.00,Wunderground v.1.15,2013-01-31 17:41:00,
2013-01-31 09:42:00,48.9,45.5,30.32,East,96,0.0,2.0,88,0.00,,,0.00,Wunderground v.1.15,2013-01-31 17:42:00,
2013-01-31 09:46:00,49.5,45.8,30.32,East,96,0.0,2.0,87,0.00,,,0.00,Wunderground v.1.15,2013-01-31 17:46:00,
2013-01-31 09:47:00,49.7,46.0,30.32,East,96,0.0,2.0,87,0.00,,,0.00,Wunderground v.1.15,2013-01-31 17:47:00,
2013-01-31 09:49:00,50.0,46.0,30.32,East,96,0.0,2.0,86,0.00,,,0.00,Wunderground v.1.15,2013-01-31 17:49:00,
2013-01-31 09:51:00,50.3,46.3,30.32,East,96,0.0,2.0,86,0.00,,,0.00,Wunderground v.1.15,2013-01-31 17:51:00,
2013-01-31 09:53:00,50.4,46.1,30.32,East,96,0.0,2.0,85,0.00,,,0.00,Wunderground v.1.15,2013-01-31 17:53:00,
2013-01-31 09:55:00,50.5,45.8,30.32,East,96,0.0,2.0,84,0.00,,,0.00,Wunderground v.1.15,2013-01-31 17:55:00,
2013-01-31 09:59:00,50.6,45.9,30.32,East,96,0.0,2.0,84,0.00,,,0.00,Wunderground v.1.15,2013-01-31 17:59:00,
2013-01-31 10:01:00,50.7,46.0,30.32,East,95,0.0,2.0,84,0.00,,,0.00,Wunderground v.1.15,2013-01-31 18:01:00,
2013-01-31 10:02:00,50.8,46.1,30.32,East,96,0.0,2.0,84,0.00,,,0.00,Wunderground v.1.15,2013-01-31 18:02:00,
2013-01-31 10:06:00,51.0,46.0,30.33,East,96,1.0,2.0,83,0.00,,,0.00,Wunderground v.1.15,2013-01-31 18:06:00,
2013-01-31 10:07:00,51.0,46.0,30.33,East,96,1.0,2.0,83,0.00,,,0.00,Wunderground v.1.15,2013-01-31 18:07:00,
2013-01-31 10:10:00,51.3,46.3,30.33,East,95,1.0,2.0,83,0.00,,,0.00,Wunderground v.1.15,2013-01-31 18:10:00,
2013-01-31 10:13:00,51.5,46.5,30.33,East,96,1.0,2.0,83,0.00,,,0.00,Wunderground v.1.15,2013-01-31 18:13:00,
2013-01-31 10:15:00,51.5,46.5,30.33,East,96,1.0,2.0,83,0.00,,,0.00,Wunderground v.1.15,2013-01-31 18:15:00,
2013-01-31 10:18:00,51.6,46.6,30.32,East,96,2.0,2.0,83,0.00,,,0.00,Wunderground v.1.15,2013-01-31 18:18:00,
2013-01-31 10:19:00,51.6,46.3,30.33,East,96,2.0,2.0,82,0.00,,,0.00,Wunderground v.1.15,2013-01-31 18:19:00,
2013-01-31 10:21:00,51.7,46.4,30.32,East,96,2.0,2.0,82,0.00,,,0.00,Wunderground v.1.15,2013-01-31 18:21:00,
2013-01-31 10:27:00,51.9,46.3,30.32,East,96,2.0,3.0,81,0.00,,,0.00,Wunderground v.1.15,2013-01-31 18:27:00,
2013-01-31 10:28:00,52.0,46.3,30.32,East,96,1.0,3.0,81,0.00,,,0.00,Wunderground v.1.15,2013-01-31 18:28:00,
2013-01-31 10:31:00,52.1,45.8,30.32,East,96,1.0,2.0,79,0.00,,,0.00,Wunderground v.1.15,2013-01-31 18:31:00,
2013-01-31 10:34:00,52.3,46.3,30.32,East,96,1.0,2.0,80,0.00,,,0.00,Wunderground v.1.15,2013-01-31 18:34:00,
2013-01-31 10:35:00,52.4,46.1,30.32,East,100,1.0,3.0,79,0.00,,,0.00,Wunderground v.1.15,2013-01-31 18:35:00,
2013-01-31 10:36:00,52.4,45.7,30.32,ESE,102,1.0,3.0,78,0.00,,,0.00,Wunderground v.1.15,2013-01-31 18:36:00,
2013-01-31 10:40:00,52.7,46.0,30.32,ESE,118,1.0,1.0,78,0.00,,,0.00,Wunderground v.1.15,2013-01-31 18:40:00,
2013-01-31 10:41:00,52.8,46.1,30.32,ESE,117,1.0,2.0,78,0.00,,,0.00,Wunderground v.1.15,2013-01-31 18:41:00,
2013-01-31 10:47:00,53.2,46.2,30.32,ESE,120,1.0,4.0,77,0.00,,,0.00,Wunderground v.1.15,2013-01-31 18:47:00,
2013-01-31 10:48:00,53.3,46.6,30.32,ESE,120,1.0,4.0,78,0.00,,,0.00,Wunderground v.1.15,2013-01-31 18:48:00,
2013-01-31 10:49:00,53.3,46.6,30.32,ESE,119,1.0,4.0,78,0.00,,,0.00,Wunderground v.1.15,2013-01-31 18:49:00,
2013-01-31 10:55:00,53.7,46.3,30.31,SE,129,1.0,3.0,76,0.00,,,0.00,Wunderground v.1.15,2013-01-31 18:55:00,
2013-01-31 10:56:00,53.8,46.4,30.32,SE,129,1.0,3.0,76,0.00,,,0.00,Wunderground v.1.15,2013-01-31 18:56:00,
2013-01-31 10:57:00,53.8,46.4,30.31,SE,129,1.0,3.0,76,0.00,,,0.00,Wunderground v.1.15,2013-01-31 18:57:00,
2013-01-31 11:00:00,53.8,46.4,30.31,SE,129,2.0,2.0,76,0.00,,,0.00,Wunderground v.1.15,2013-01-31 19:00:00,
2013-01-31 11:01:00,53.8,46.4,30.31,SE,130,2.0,2.0,76,0.00,,,0.00,Wunderground v.1.15,2013-01-31 19:01:00,
2013-01-31 11:02:00,53.9,46.5,30.31,SSE,152,2.0,2.0,76,0.00,,,0.00,Wunderground v.1.15,2013-01-31 19:02:00,
2013-01-31 11:05:00,53.9,46.2,30.31,SSE,156,2.0,2.0,75,0.00,,,0.00,Wunderground v.1.15,2013-01-31 19:05:00,
2013-01-31 11:07:00,53.9,46.2,30.31,SSE,156,2.0,2.0,75,0.00,,,0.00,Wunderground v.1.15,2013-01-31 19:07:00,
2013-01-31 11:09:00,54.0,46.3,30.31,SSE,156,1.0,2.0,75,0.00,,,0.00,Wunderground v.1.15,2013-01-31 19:09:00,
2013-01-31 11:13:00,54.2,46.4,30.31,SSE,166,1.0,2.0,75,0.00,,,0.00,Wunderground v.1.15,2013-01-31 19:13:00,
2013-01-31 11:14:00,54.2,46.4,30.31,SSE,166,1.0,2.0,75,0.00,,,0.00,Wunderground v.1.15,2013-01-31 19:14:00,
2013-01-31 11:15:00,54.3,46.5,30.31,SSE,166,1.0,2.0,75,0.00,,,0.00,Wunderground v.1.15,2013-01-31 19:15:00,
2013-01-31 11:20:00,54.7,46.9,30.31,SSE,168,1.0,2.0,75,0.00,,,0.00,Wunderground v.1.15,2013-01-31 19:20:00,
2013-01-31 11:26:00,55.3,46.8,30.30,South,171,2.0,4.0,73,0.00,,,0.00,Wunderground v.1.15,2013-01-31 19:26:00,
2013-01-31 11:30:00,55.6,47.1,30.30,South,183,3.0,4.0,73,0.00,,,0.00,Wunderground v.1.15,2013-01-31 19:30:00,
2013-01-31 11:31:00,55.7,47.2,30.30,South,172,3.0,4.0,73,0.00,,,0.00,Wunderground v.1.15,2013-01-31 19:31:00,
2013-01-31 11:32:00,55.8,47.3,30.30,South,172,3.0,4.0,73,0.00,,,0.00,Wunderground v.1.15,2013-01-31 19:32:00,
2013-01-31 11:33:00,55.9,47.4,30.30,South,172,3.0,4.0,73,0.00,,,0.00,Wunderground v.1.15,2013-01-31 19:33:00,
2013-01-31 11:39:00,56.5,47.6,30.30,SSE,158,2.0,5.0,72,0.00,,,0.00,Wunderground v.1.15,2013-01-31 19:39:00,
2013-01-31 11:40:00,56.6,47.7,30.30,SSE,164,2.0,3.0,72,0.00,,,0.00,Wunderground v.1.15,2013-01-31 19:40:00,
2013-01-31 11:42:00,56.8,46.7,30.30,South,183,2.0,4.0,69,0.00,,,0.00,Wunderground v.1.15,2013-01-31 19:42:00,
2013-01-31 11:45:00,57.1,47.4,30.29,SE,139,3.0,6.0,70,0.00,,,0.00,Wunderground v.1.15,2013-01-31 19:45:00,
2013-01-31 11:47:00,57.1,47.4,30.29,SE,125,3.0,6.0,70,0.00,,,0.00,Wunderground v.1.15,2013-01-31 19:47:00,
2013-01-31 11:50:00,57.2,47.5,30.29,SE,137,3.0,3.0,70,0.00,,,0.00,Wunderground v.1.15,2013-01-31 19:50:00,
2013-01-31 11:51:00,57.3,47.6,30.29,SE,133,3.0,4.0,70,0.00,,,0.00,Wunderground v.1.15,2013-01-31 19:51:00,
2013-01-31 11:52:00,57.4,48.1,30.29,SSE,162,3.0,4.0,71,0.00,,,0.00,Wunderground v.1.15,2013-01-31 19:52:00,
2013-01-31 11:53:00,57.5,47.8,30.29,SSW,195,3.0,4.0,70,0.00,,,0.00,Wunderground v.1.15,2013-01-31 19:53:00,
2013-01-31 11:55:00,57.6,47.9,30.29,SSW,195,3.0,4.0,70,0.00,,,0.00,Wunderground v.1.15,2013-01-31 19:55:00,
2013-01-31 11:56:00,57.7,48.0,30.29,SSW,195,3.0,4.0,70,0.00,,,0.00,Wunderground v.1.15,2013-01-31 19:56:00,
2013-01-31 12:02:00,58.2,47.7,30.29,SSE,150,4.0,4.0,68,0.00,,,0.00,Wunderground v.1.15,2013-01-31 20:02:00,
2013-01-31 12:04:00,58.3,47.8,30.28,SSE,154,3.0,4.0,68,0.00,,,0.00,Wunderground v.1.15,2013-01-31 20:04:00,
2013-01-31 12:07:00,58.5,48.0,30.28,SSE,163,3.0,4.0,68,0.00,,,0.00,Wunderground v.1.15,2013-01-31 20:07:00,
2013-01-31 12:09:00,58.7,47.4,30.28,SSE,151,3.0,5.0,66,0.00,,,0.00,Wunderground v.1.15,2013-01-31 20:09:00,
2013-01-31 12:10:00,58.7,47.8,30.28,SE,145,3.0,3.0,67,0.00,,,0.00,Wunderground v.1.15,2013-01-31 20:10:00,
2013-01-31 12:14:00,58.9,47.6,30.28,SE,143,3.0,4.0,66,0.00,,,0.00,Wunderground v.1.15,2013-01-31 20:14:00,
2013-01-31 12:16:00,59.1,48.1,30.28,SE,135,3.0,4.0,67,0.00,,,0.00,Wunderground v.1.15,2013-01-31 20:16:00,
2013-01-31 12:18:00,59.2,48.2,30.28,SE,133,4.0,4.0,67,0.00,,,0.00,Wunderground v.1.15,2013-01-31 20:18:00,
2013-01-31 12:20:00,59.5,48.5,30.28,SE,129,4.0,5.0,67,0.00,,,0.00,Wunderground v.1.15,2013-01-31 20:20:00,
2013-01-31 12:22:00,59.6,47.4,30.28,SE,126,4.0,5.0,64,0.00,,,0.00,Wunderground v.1.15,2013-01-31 20:22:00,
2013-01-31 12:24:00,59.5,46.9,30.28,SE,127,4.0,5.0,63,0.00,,,0.00,Wunderground v.1.15,2013-01-31 20:24:00,
2013-01-31 12:26:00,59.6,47.4,30.27,SE,127,4.0,5.0,64,0.00,,,0.00,Wunderground v.1.15,2013-01-31 20:26:00,
2013-01-31 12:27:00,59.7,47.1,30.27,SE,127,3.0,5.0,63,0.00,,,0.00,Wunderground v.1.15,2013-01-31 20:27:00,
2013-01-31 12:30:00,59.8,47.2,30.27,SE,137,2.0,3.0,63,0.00,,,0.00,Wunderground v.1.15,2013-01-31 20:30:00,
2013-01-31 12:33:00,60.0,47.4,30.27,SSE,158,2.0,5.0,63,0.00,,,0.00,Wunderground v.1.15,2013-01-31 20:33:00,
2013-01-31 12:34:00,60.0,47.4,30.27,SSE,164,2.0,5.0,63,0.00,,,0.00,Wunderground v.1.15,2013-01-31 20:34:00,
2013-01-31 12:39:00,60.2,47.6,30.27,SE,143,3.0,5.0,63,0.00,,,0.00,Wunderground v.1.15,2013-01-31 20:39:00,
2013-01-31 12:40:00,60.3,47.6,30.27,SE,143,3.0,4.0,63,0.00,,,0.00,Wunderground v.1.15,2013-01-31 20:40:00,
2013-01-31 12:43:00,60.4,47.3,30.27,SE,143,3.0,4.0,62,0.00,,,0.00,Wunderground v.1.15,2013-01-31 20:43:00,
2013-01-31 12:45:00,60.5,47.4,30.26,SE,141,3.0,4.0,62,0.00,,,0.00,Wunderground v.1.15,2013-01-31 20:45:00,
2013-01-31 12:46:00,60.5,47.4,30.27,SSE,152,3.0,4.0,62,0.00,,,0.00,Wunderground v.1.15,2013-01-31 20:46:00,
2013-01-31 12:48:00,60.6,47.1,30.26,SSE,153,3.0,4.0,61,0.00,,,0.00,Wunderground v.1.15,2013-01-31 20:48:00,
2013-01-31 12:52:00,60.8,47.7,30.26,SE,145,2.0,4.0,62,0.00,,,0.00,Wunderground v.1.15,2013-01-31 20:52:00,
2013-01-31 12:55:00,61.0,48.3,30.26,SE,145,2.0,5.0,63,0.00,,,0.00,Wunderground v.1.15,2013-01-31 20:55:00,
2013-01-31 12:57:00,61.1,48.4,30.26,SE,142,2.0,5.0,63,0.00,,,0.00,Wunderground v.1.15,2013-01-31 20:57:00,
2013-01-31 12:59:00,61.1,48.0,30.26,SE,141,3.0,5.0,62,0.00,,,0.00,Wunderground v.1.15,2013-01-31 20:59:00,
2013-01-31 13:00:00,61.2,48.5,30.26,SE,141,3.0,3.0,63,0.00,,,0.00,Wunderground v.1.15,2013-01-31 21:00:00,
2013-01-31 13:03:00,61.4,49.5,30.25,SSE,154,3.0,5.0,65,0.00,,,0.00,Wunderground v.1.15,2013-01-31 21:03:00,
2013-01-31 13:06:00,61.3,49.0,30.25,SSW,194,3.0,6.0,64,0.00,,,0.00,Wunderground v.1.15,2013-01-31 21:06:00,
2013-01-31 13:09:00,61.2,48.9,30.25,South,185,4.0,7.0,64,0.00,,,0.00,Wunderground v.1.15,2013-01-31 21:09:00,
2013-01-31 13:10:00,61.2,48.9,30.25,SSW,194,4.0,4.0,64,0.00,,,0.00,Wunderground v.1.15,2013-01-31 21:10:00,
2013-01-31 13:15:00,61.2,48.9,30.25,SSE,162,4.0,4.0,64,0.00,,,0.00,Wunderground v.1.15,2013-01-31 21:15:00,
2013-01-31 13:16:00,61.3,49.0,30.25,SSE,156,4.0,6.0,64,0.00,,,0.00,Wunderground v.1.15,2013-01-31 21:16:00,
2013-01-31 13:18:00,61.3,49.0,30.25,SSE,147,3.0,6.0,64,0.00,,,0.00,Wunderground v.1.15,2013-01-31 21:18:00,
2013-01-31 13:19:00,61.3,49.4,30.25,SSE,147,3.0,6.0,65,0.00,,,0.00,Wunderground v.1.15,2013-01-31 21:19:00,
2013-01-31 13:24:00,61.8,49.1,30.25,South,190,3.0,3.0,63,0.00,,,0.00,Wunderground v.1.15,2013-01-31 21:24:00,
2013-01-31 13:25:00,61.8,49.1,30.25,South,190,3.0,3.0,63,0.00,,,0.00,Wunderground v.1.15,2013-01-31 21:25:00,
2013-01-31 13:28:00,62.1,49.4,30.24,SSE,164,2.0,3.0,63,0.00,,,0.00,Wunderground v.1.15,2013-01-31 21:28:00,
2013-01-31 13:29:00,62.1,49.4,30.24,SSE,162,2.0,4.0,63,0.00,,,0.00,Wunderground v.1.15,2013-01-31 21:29:00,
2013-01-31 13:33:00,62.0,48.8,30.24,SSE,162,3.0,3.0,62,0.00,,,0.00,Wunderground v.1.15,2013-01-31 21:33:00,
2013-01-31 13:36:00,61.8,49.1,30.24,SSE,156,3.0,5.0,63,0.00,,,0.00,Wunderground v.1.15,2013-01-31 21:36:00,
2013-01-31 13:37:00,61.8,48.6,30.24,SSE,163,3.0,5.0,62,0.00,,,0.00,Wunderground v.1.15,2013-01-31 21:37:00,
2013-01-31 13:39:00,61.8,49.1,30.24,SSE,163,3.0,5.0,63,0.00,,,0.00,Wunderground v.1.15,2013-01-31 21:39:00,
2013-01-31 13:44:00,62.1,48.9,30.24,SSE,151,4.0,7.0,62,0.00,,,0.00,Wunderground v.1.15,2013-01-31 21:44:00,
2013-01-31 13:46:00,62.2,49.4,30.24,SSE,147,3.0,7.0,63,0.00,,,0.00,Wunderground v.1.15,2013-01-31 21:46:00,
2013-01-31 13:48:00,62.3,50.4,30.24,South,170,4.0,7.0,65,0.00,,,0.00,Wunderground v.1.15,2013-01-31 21:48:00,
2013-01-31 13:50:00,62.3,50.0,30.24,SSE,156,4.0,6.0,64,0.00,,,0.00,Wunderground v.1.15,2013-01-31 21:50:00,
2013-01-31 13:51:00,62.3,50.0,30.24,SSE,154,4.0,6.0,64,0.00,,,0.00,Wunderground v.1.15,2013-01-31 21:51:00,
2013-01-31 13:54:00,62.4,50.1,30.24,South,181,4.0,6.0,64,0.00,,,0.00,Wunderground v.1.15,2013-01-31 21:54:00,
2013-01-31 13:55:00,62.5,50.2,30.24,South,171,4.0,6.0,64,0.00,,,0.00,Wunderground v.1.15,2013-01-31 21:55:00,
2013-01-31 13:58:00,62.4,49.6,30.23,South,174,4.0,6.0,63,0.00,,,0.00,Wunderground v.1.15,2013-01-31 21:58:00,
2013-01-31 14:01:00,62.4,49.6,30.23,South,172,4.0,4.0,63,0.00,,,0.00,Wunderground v.1.15,2013-01-31 22:01:00,
2013-01-31 14:03:00,62.5,49.7,30.23,SSW,201,4.0,7.0,63,0.00,,,0.00,Wunderground v.1.15,2013-01-31 22:03:00,
2013-01-31 14:04:00,62.4,49.6,30.23,SSW,201,4.0,7.0,63,0.00,,,0.00,Wunderground v.1.15,2013-01-31 22:04:00,
2013-01-31 14:05:00,62.3,49.5,30.23,SSW,204,5.0,7.0,63,0.00,,,0.00,Wunderground v.1.15,2013-01-31 22:05:00,
2013-01-31 14:07:00,62.3,50.0,30.23,South,179,5.0,7.0,64,0.00,,,0.00,Wunderground v.1.15,2013-01-31 22:07:00,
2013-01-31 14:13:00,62.4,49.6,30.23,SSW,196,4.0,5.0,63,0.00,,,0.00,Wunderground v.1.15,2013-01-31 22:13:00,
2013-01-31 14:14:00,62.5,49.7,30.23,SSW,197,4.0,5.0,63,0.00,,,0.00,Wunderground v.1.15,2013-01-31 22:14:00,
2013-01-31 14:16:00,62.4,50.1,30.23,South,185,4.0,5.0,64,0.00,,,0.00,Wunderground v.1.15,2013-01-31 22:16:00,
2013-01-31 14:19:00,62.3,49.5,30.23,SSW,204,4.0,6.0,63,0.00,,,0.00,Wunderground v.1.15,2013-01-31 22:19:00,
2013-01-31 14:21:00,62.4,50.1,30.23,South,186,4.0,5.0,64,0.00,,,0.00,Wunderground v.1.15,2013-01-31 22:21:00,
2013-01-31 14:23:00,62.5,50.2,30.23,SSW,203,4.0,6.0,64,0.00,,,0.00,Wunderground v.1.15,2013-01-31 22:23:00,
2013-01-31 14:24:00,62.5,50.2,30.23,South,181,4.0,6.0,64,0.00,,,0.00,Wunderground v.1.15,2013-01-31 22:24:00,
2013-01-31 14:27:00,62.5,50.2,30.23,South,179,4.0,6.0,64,0.00,,,0.00,Wunderground v.1.15,2013-01-31 22:27:00,
2013-01-31 14:29:00,62.6,50.2,30.23,South,183,3.0,6.0,64,0.00,,,0.00,Wunderground v.1.15,2013-01-31 22:29:00,
2013-01-31 14:32:00,62.6,49.8,30.22,SSW,205,3.0,4.0,63,0.00,,,0.00,Wunderground v.1.15,2013-01-31 22:32:00,
2013-01-31 14:36:00,62.6,50.2,30.22,SSW,208,3.0,5.0,64,0.00,,,0.00,Wunderground v.1.15,2013-01-31 22:36:00,
2013-01-31 14:37:00,62.6,49.8,30.22,SSW,206,3.0,7.0,63,0.00,,,0.00,Wunderground v.1.15,2013-01-31 22:37:00,
2013-01-31 14:38:00,62.6,49.8,30.22,South,187,4.0,7.0,63,0.00,,,0.00,Wunderground v.1.15,2013-01-31 22:38:00,
2013-01-31 14:40:00,62.7,49.9,30.22,South,187,4.0,4.0,63,0.00,,,0.00,Wunderground v.1.15,2013-01-31 22:40:00,
2013-01-31 14:42:00,62.8,50.0,30.22,South,187,3.0,4.0,63,0.00,,,0.00,Wunderground v.1.15,2013-01-31 22:42:00,
2013-01-31 14:47:00,63.1,49.9,30.22,South,189,3.0,4.0,62,0.00,,,0.00,Wunderground v.1.15,2013-01-31 22:47:00,
2013-01-31 14:48:00,63.1,49.9,30.22,SSW,193,3.0,4.0,62,0.00,,,0.00,Wunderground v.1.15,2013-01-31 22:48:00,
2013-01-31 14:51:00,63.1,49.9,30.22,South,185,2.0,3.0,62,0.00,,,0.00,Wunderground v.1.15,2013-01-31 22:51:00,
2013-01-31 14:53:00,63.2,50.0,30.22,South,179,2.0,4.0,62,0.00,,,0.00,Wunderground v.1.15,2013-01-31 22:53:00,
2013-01-31 14:54:00,63.3,50.1,30.22,South,183,2.0,5.0,62,0.00,,,0.00,Wunderground v.1.15,2013-01-31 22:54:00,
2013-01-31 14:57:00,63.2,50.0,30.22,South,184,3.0,5.0,62,0.00,,,0.00,Wunderground v.1.15,2013-01-31 22:57:00,
2013-01-31 14:59:00,63.2,50.0,30.22,South,184,2.0,5.0,62,0.00,,,0.00,Wunderground v.1.15,2013-01-31 22:59:00,
2013-01-31 15:01:00,63.4,50.1,30.22,South,179,2.0,2.0,62,0.00,,,0.00,Wunderground v.1.15,2013-01-31 23:01:00,
2013-01-31 15:03:00,63.4,50.1,30.22,SSE,166,2.0,2.0,62,0.00,,,0.00,Wunderground v.1.15,2013-01-31 23:03:00,
2013-01-31 15:05:00,63.4,49.7,30.22,SSE,166,2.0,2.0,61,0.00,,,0.00,Wunderground v.1.15,2013-01-31 23:05:00,
2013-01-31 15:07:00,63.3,49.6,30.22,SSE,166,1.0,2.0,61,0.00,,,0.00,Wunderground v.1.15,2013-01-31 23:07:00,
2013-01-31 15:08:00,63.3,50.1,30.22,SSE,166,1.0,2.0,62,0.00,,,0.00,Wunderground v.1.15,2013-01-31 23:08:00,
2013-01-31 15:13:00,63.6,49.9,30.22,South,190,1.0,4.0,61,0.00,,,0.00,Wunderground v.1.15,2013-01-31 23:13:00,
2013-01-31 15:14:00,63.6,50.3,30.22,South,190,2.0,4.0,62,0.00,,,0.00,Wunderground v.1.15,2013-01-31 23:14:00,
2013-01-31 15:19:00,63.7,50.0,30.22,South,186,2.0,5.0,61,0.00,,,0.00,Wunderground v.1.15,2013-01-31 23:19:00,
2013-01-31 15:20:00,63.7,50.0,30.22,South,172,2.0,3.0,61,0.00,,,0.00,Wunderground v.1.15,2013-01-31 23:20:00,
2013-01-31 15:22:00,63.6,49.9,30.22,South,172,2.0,3.0,61,0.00,,,0.00,Wunderground v.1.15,2013-01-31 23:22:00,
2013-01-31 15:25:00,63.7,50.0,30.22,SSW,201,2.0,5.0,61,0.00,,,0.00,Wunderground v.1.15,2013-01-31 23:25:00,
2013-01-31 15:26:00,63.7,50.0,30.22,SSW,201,2.0,5.0,61,0.00,,,0.00,Wunderground v.1.15,2013-01-31 23:26:00,
2013-01-31 15:27:00,63.7,50.0,30.22,South,172,3.0,5.0,61,0.00,,,0.00,Wunderground v.1.15,2013-01-31 23:27:00,
2013-01-31 15:29:00,63.6,49.9,30.22,SSE,163,3.0,5.0,61,0.00,,,0.00,Wunderground v.1.15,2013-01-31 23:29:00,
2013-01-31 15:32:00,63.5,49.8,30.22,SSE,149,3.0,4.0,61,0.00,,,0.00,Wunderground v.1.15,2013-01-31 23:32:00,
2013-01-31 15:33:00,63.5,49.8,30.22,SSE,149,3.0,4.0,61,0.00,,,0.00,Wunderground v.1.15,2013-01-31 23:33:00,
2013-01-31 15:35:00,63.5,49.8,30.21,SSE,158,3.0,4.0,61,0.00,,,0.00,Wunderground v.1.15,2013-01-31 23:35:00,
2013-01-31 15:39:00,63.5,49.8,30.21,South,170,3.0,4.0,61,0.00,,,0.00,Wunderground v.1.15,2013-01-31 23:39:00,
2013-01-31 15:41:00,63.6,49.9,30.21,South,174,3.0,3.0,61,0.00,,,0.00,Wunderground v.1.15,2013-01-31 23:41:00,
2013-01-31 15:42:00,63.6,49.9,30.22,South,174,2.0,3.0,61,0.00,,,0.00,Wunderground v.1.15,2013-01-31 23:42:00,
2013-01-31 15:45:00,63.6,49.9,30.21,SSW,193,3.0,5.0,61,0.00,,,0.00,Wunderground v.1.15,2013-01-31 23:45:00,
2013-01-31 15:47:00,63.5,49.4,30.21,SSE,166,3.0,5.0,60,0.00,,,0.00,Wunderground v.1.15,2013-01-31 23:47:00,
2013-01-31 15:48:00,63.5,49.8,30.21,SSE,166,3.0,5.0,61,0.00,,,0.00,Wunderground v.1.15,2013-01-31 23:48:00,
2013-01-31 15:51:00,63.4,49.7,30.21,SSE,168,3.0,3.0,61,0.00,,,0.00,Wunderground v.1.15,2013-01-31 23:51:00,
2013-01-31 15:53:00,63.5,49.8,30.21,SSE,168,3.0,3.0,61,0.00,,,0.00,Wunderground v.1.15,2013-01-31 23:53:00,
2013-01-31 15:56:00,63.6,49.9,30.21,South,179,2.0,3.0,61,0.00,,,0.00,Wunderground v.1.15,2013-01-31 23:56:00,
2013-01-31 15:59:00,63.6,49.9,30.21,South,170,2.0,3.0,61,0.00,,,0.00,Wunderground v.1.15,2013-01-31 23:59:00,
2013-01-31 16:01:00,63.7,50.0,30.21,South,177,2.0,2.0,61,0.00,,,0.00,Wunderground v.1.15,2013-02-01 00:01:00,
2013-01-31 16:03:00,63.8,50.1,30.21,South,179,2.0,4.0,61,0.00,,,0.00,Wunderground v.1.15,2013-02-01 00:03:00,
2013-01-31 16:05:00,63.8,50.1,30.21,South,181,2.0,5.0,61,0.00,,,0.00,Wunderground v.1.15,2013-02-01 00:05:00,
2013-01-31 16:08:00,63.7,50.0,30.21,South,184,3.0,5.0,61,0.00,,,0.00,Wunderground v.1.15,2013-02-01 00:08:00,
2013-01-31 16:09:00,63.6,49.9,30.21,South,177,3.0,5.0,61,0.00,,,0.00,Wunderground v.1.15,2013-02-01 00:09:00,
2013-01-31 16:12:00,63.5,49.8,30.21,South,191,3.0,4.0,61,0.00,,,0.00,Wunderground v.1.15,2013-02-01 00:12:00,
2013-01-31 16:18:00,63.5,49.8,30.21,SSE,163,3.0,4.0,61,0.00,,,0.00,Wunderground v.1.15,2013-02-01 00:18:00,
2013-01-31 16:20:00,63.5,49.8,30.21,SSE,163,3.0,3.0,61,0.00,,,0.00,Wunderground v.1.15,2013-02-01 00:20:00,
2013-01-31 16:22:00,63.5,49.8,30.21,SSE,163,2.0,3.0,61,0.00,,,0.00,Wunderground v.1.15,2013-02-01 00:22:00,
2013-01-31 16:24:00,63.5,49.8,30.21,South,175,2.0,3.0,61,0.00,,,0.00,Wunderground v.1.15,2013-02-01 00:24:00,
2013-01-31 16:25:00,63.5,49.8,30.21,South,178,2.0,3.0,61,0.00,,,0.00,Wunderground v.1.15,2013-02-01 00:25:00,
2013-01-31 16:27:00,63.5,49.8,30.21,South,175,2.0,3.0,61,0.00,,,0.00,Wunderground v.1.15,2013-02-01 00:27:00,
2013-01-31 16:29:00,63.5,49.8,30.21,South,173,2.0,3.0,61,0.00,,,0.00,Wunderground v.1.15,2013-02-01 00:29:00,
2013-01-31 16:31:00,63.4,49.7,30.21,South,172,2.0,2.0,61,0.00,,,0.00,Wunderground v.1.15,2013-02-01 00:31:00,
2013-01-31 16:33:00,63.4,49.7,30.21,South,173,1.0,2.0,61,0.00,,,0.00,Wunderground v.1.15,2013-02-01 00:33:00,
2013-01-31 16:35:00,63.4,49.7,30.21,South,172,1.0,2.0,61,0.00,,,0.00,Wunderground v.1.15,2013-02-01 00:35:00,
2013-01-31 16:39:00,63.5,49.8,30.21,South,172,1.0,2.0,61,0.00,,,0.00,Wunderground v.1.15,2013-02-01 00:39:00,
2013-01-31 16:41:00,63.4,49.7,30.21,South,173,1.0,2.0,61,0.00,,,0.00,Wunderground v.1.15,2013-02-01 00:41:00,
2013-01-31 16:42:00,63.4,49.7,30.21,South,172,1.0,2.0,61,0.00,,,0.00,Wunderground v.1.15,2013-02-01 00:42:00,
2013-01-31 16:47:00,63.2,49.1,30.21,South,173,1.0,3.0,60,0.00,,,0.00,Wunderground v.1.15,2013-02-01 00:47:00,
2013-01-31 16:49:00,63.2,49.5,30.20,South,172,1.0,3.0,61,0.00,,,0.00,Wunderground v.1.15,2013-02-01 00:49:00,
2013-01-31 16:51:00,63.3,49.6,30.20,South,173,1.0,2.0,61,0.00,,,0.00,Wunderground v.1.15,2013-02-01 00:51:00,
2013-01-31 16:54:00,63.3,49.2,30.21,South,172,1.0,2.0,60,0.00,,,0.00,Wunderground v.1.15,2013-02-01 00:54:00,
2013-01-31 16:55:00,63.3,49.2,30.21,South,172,1.0,2.0,60,0.00,,,0.00,Wunderground v.1.15,2013-02-01 00:55:00,
2013-01-31 16:56:00,63.3,49.6,30.20,South,172,0.0,2.0,61,0.00,,,0.00,Wunderground v.1.15,2013-02-01 00:56:00,
2013-01-31 17:00:00,63.2,49.5,30.21,South,172,0.0,2.0,61,0.00,,,0.00,Wunderground v.1.15,2013-02-01 01:00:00,
2013-01-31 17:01:00,63.1,49.4,30.21,South,172,0.0,2.0,61,0.00,,,0.00,Wunderground v.1.15,2013-02-01 01:01:00,
2013-01-31 17:03:00,63.0,49.8,30.21,South,172,0.0,2.0,62,0.00,,,0.00,Wunderground v.1.15,2013-02-01 01:03:00,
2013-01-31 17:06:00,62.8,49.6,30.21,South,172,0.0,2.0,62,0.00,,,0.00,Wunderground v.1.15,2013-02-01 01:06:00,
2013-01-31 17:07:00,62.7,49.5,30.21,South,172,0.0,2.0,62,0.00,,,0.00,Wunderground v.1.15,2013-02-01 01:07:00,
2013-01-31 17:10:00,62.5,49.7,30.21,South,172,0.0,2.0,63,0.00,,,0.00,Wunderground v.1.15,2013-02-01 01:10:00,
2013-01-31 17:12:00,62.2,49.9,30.21,South,173,0.0,2.0,64,0.00,,,0.00,Wunderground v.1.15,2013-02-01 01:12:00,
2013-01-31 17:14:00,62.0,49.7,30.21,South,172,1.0,2.0,64,0.00,,,0.00,Wunderground v.1.15,2013-02-01 01:14:00,
2013-01-31 17:17:00,61.6,49.7,30.21,South,173,1.0,2.0,65,0.00,,,0.00,Wunderground v.1.15,2013-02-01 01:17:00,
2013-01-31 17:21:00,61.2,49.7,30.21,South,172,1.0,2.0,66,0.00,,,0.00,Wunderground v.1.15,2013-02-01 01:21:00,
2013-01-31 17:26:00,60.8,49.8,30.21,South,173,1.0,2.0,67,0.00,,,0.00,Wunderground v.1.15,2013-02-01 01:26:00,
2013-01-31 17:27:00,60.7,49.7,30.21,South,173,1.0,2.0,67,0.00,,,0.00,Wunderground v.1.15,2013-02-01 01:27:00,
2013-01-31 17:30:00,60.4,49.8,30.21,South,173,1.0,1.0,68,0.00,,,0.00,Wunderground v.1.15,2013-02-01 01:30:00,
2013-01-31 17:31:00,60.3,49.7,30.21,South,173,1.0,2.0,68,0.00,,,0.00,Wunderground v.1.15,2013-02-01 01:31:00,
2013-01-31 17:34:00,60.2,49.6,30.21,South,173,1.0,2.0,68,0.00,,,0.00,Wunderground v.1.15,2013-02-01 01:34:00,
2013-01-31 17:37:00,60.0,49.4,30.21,South,172,0.0,2.0,68,0.00,,,0.00,Wunderground v.1.15,2013-02-01 01:37:00,
2013-01-31 17:39:00,59.8,49.6,30.21,South,173,0.0,2.0,69,0.00,,,0.00,Wunderground v.1.15,2013-02-01 01:39:00,
2013-01-31 17:40:00,59.7,49.5,30.21,South,172,0.0,2.0,69,0.00,,,0.00,Wunderground v.1.15,2013-02-01 01:40:00,
2013-01-31 17:42:00,59.5,49.3,30.21,South,172,0.0,2.0,69,0.00,,,0.00,Wunderground v.1.15,2013-02-01 01:42:00,
2013-01-31 17:44:00,59.3,49.5,30.21,South,172,0.0,2.0,70,0.00,,,0.00,Wunderground v.1.15,2013-02-01 01:44:00,
2013-01-31 17:45:00,59.2,49.4,30.21,South,173,0.0,2.0,70,0.00,,,0.00,Wunderground v.1.15,2013-02-01 01:45:00,
2013-01-31 17:49:00,58.8,49.0,30.21,South,173,0.0,2.0,70,0.00,,,0.00,Wunderground v.1.15,2013-02-01 01:49:00,
2013-01-31 17:50:00,58.7,49.3,30.21,South,172,0.0,2.0,71,0.00,,,0.00,Wunderground v.1.15,2013-02-01 01:50:00,
2013-01-31 17:55:00,58.4,49.0,30.20,South,173,0.0,2.0,71,0.00,,,0.00,Wunderground v.1.15,2013-02-01 01:55:00,
2013-01-31 17:56:00,58.3,48.9,30.20,South,173,0.0,2.0,71,0.00,,,0.00,Wunderground v.1.15,2013-02-01 01:56:00,
2013-01-31 18:01:00,58.1,48.7,30.20,South,172,0.0,2.0,71,0.00,,,0.00,Wunderground v.1.15,2013-02-01 02:01:00,
2013-01-31 18:02:00,58.0,48.6,30.20,South,172,0.0,2.0,71,0.00,,,0.00,Wunderground v.1.15,2013-02-01 02:02:00,
2013-01-31 18:03:00,58.0,48.6,30.20,South,173,0.0,2.0,71,0.00,,,0.00,Wunderground v.1.15,2013-02-01 02:03:00,
2013-01-31 18:08:00,57.5,48.5,30.20,South,172,0.0,2.0,72,0.00,,,0.00,Wunderground v.1.15,2013-02-01 02:08:00,
2013-01-31 18:12:00,56.9,48.3,30.20,South,172,0.0,2.0,73,0.00,,,0.00,Wunderground v.1.15,2013-02-01 02:12:00,
2013-01-31 18:15:00,56.5,48.3,30.20,South,172,1.0,2.0,74,0.00,,,0.00,Wunderground v.1.15,2013-02-01 02:15:00,
2013-01-31 18:17:00,56.3,48.1,30.21,South,172,1.0,2.0,74,0.00,,,0.00,Wunderground v.1.15,2013-02-01 02:17:00,
2013-01-31 18:18:00,56.2,48.0,30.20,South,172,1.0,2.0,74,0.00,,,0.00,Wunderground v.1.15,2013-02-01 02:18:00,
2013-01-31 18:21:00,56.1,48.6,30.21,South,172,2.0,2.0,76,0.00,,,0.00,Wunderground v.1.15,2013-02-01 02:21:00,
2013-01-31 18:22:00,56.1,48.6,30.21,South,173,2.0,2.0,76,0.00,,,0.00,Wunderground v.1.15,2013-02-01 02:22:00,
2013-01-31 18:24:00,56.0,48.5,30.21,South,172,2.0,2.0,76,0.00,,,0.00,Wunderground v.1.15,2013-02-01 02:24:00,
2013-01-31 18:27:00,55.9,48.4,30.21,South,173,1.0,2.0,76,0.00,,,0.00,Wunderground v.1.15,2013-02-01 02:27:00,
2013-01-31 18:29:00,55.8,48.3,30.21,South,172,1.0,2.0,76,0.00,,,0.00,Wunderground v.1.15,2013-02-01 02:29:00,
2013-01-31 18:30:00,55.7,48.2,30.21,South,172,1.0,1.0,76,0.00,,,0.00,Wunderground v.1.15,2013-02-01 02:30:00,
2013-01-31 18:35:00,55.1,47.7,30.21,South,172,0.0,2.0,76,0.00,,,0.00,Wunderground v.1.15,2013-02-01 02:35:00,
2013-01-31 18:36:00,55.0,47.6,30.21,South,172,0.0,2.0,76,0.00,,,0.00,Wunderground v.1.15,2013-02-01 02:36:00,
2013-01-31 18:37:00,55.0,47.6,30.21,South,172,0.0,2.0,76,0.00,,,0.00,Wunderground v.1.15,2013-02-01 02:37:00,
2013-01-31 18:38:00,54.9,47.8,30.21,South,173,0.0,2.0,77,0.00,,,0.00,Wunderground v.1.15,2013-02-01 02:38:00,
2013-01-31 18:42:00,54.5,47.8,30.21,South,173,0.0,2.0,78,0.00,,,0.00,Wunderground v.1.15,2013-02-01 02:42:00,
2013-01-31 18:43:00,54.4,47.7,30.21,South,172,0.0,2.0,78,0.00,,,0.00,Wunderground v.1.15,2013-02-01 02:43:00,
2013-01-31 18:45:00,54.2,47.5,30.21,South,173,0.0,2.0,78,0.00,,,0.00,Wunderground v.1.15,2013-02-01 02:45:00,
2013-01-31 18:47:00,53.9,47.2,30.21,South,173,0.0,2.0,78,0.00,,,0.00,Wunderground v.1.15,2013-02-01 02:47:00,
2013-01-31 18:48:00,53.8,47.4,30.21,South,172,0.0,2.0,79,0.00,,,0.00,Wunderground v.1.15,2013-02-01 02:48:00,
2013-01-31 18:51:00,53.4,47.4,30.22,South,172,0.0,2.0,80,0.00,,,0.00,Wunderground v.1.15,2013-02-01 02:51:00,
2013-01-31 18:53:00,53.2,47.2,30.22,South,172,1.0,2.0,80,0.00,,,0.00,Wunderground v.1.15,2013-02-01 02:53:00,
2013-01-31 18:58:00,52.8,47.1,30.22,South,172,1.0,2.0,81,0.00,,,0.00,Wunderground v.1.15,2013-02-01 02:58:00,
2013-01-31 18:59:00,52.7,47.0,30.22,South,173,1.0,2.0,81,0.00,,,0.00,Wunderground v.1.15,2013-02-01 02:59:00,
2013-01-31 19:00:00,52.7,47.4,30.22,South,172,1.0,1.0,82,0.00,,,0.00,Wunderground v.1.15,2013-02-01 03:00:00,
2013-01-31 19:03:00,52.4,47.1,30.22,South,172,1.0,2.0,82,0.00,,,0.00,Wunderground v.1.15,2013-02-01 03:03:00,
2013-01-31 19:05:00,52.3,47.0,30.22,South,172,0.0,2.0,82,0.00,,,0.00,Wunderground v.1.15,2013-02-01 03:05:00,
2013-01-31 19:08:00,52.0,47.0,30.22,South,172,0.0,2.0,83,0.00,,,0.00,Wunderground v.1.15,2013-02-01 03:08:00,
2013-01-31 19:10:00,51.9,46.9,30.22,South,173,0.0,2.0,83,0.00,,,0.00,Wunderground v.1.15,2013-02-01 03:10:00,
2013-01-31 19:12:00,51.7,47.0,30.22,South,172,0.0,2.0,84,0.00,,,0.00,Wunderground v.1.15,2013-02-01 03:12:00,
2013-01-31 19:13:00,51.7,47.0,30.22,South,172,0.0,2.0,84,0.00,,,0.00,Wunderground v.1.15,2013-02-01 03:13:00,
2013-01-31 19:14:00,51.6,46.9,30.22,South,173,0.0,2.0,84,0.00,,,0.00,Wunderground v.1.15,2013-02-01 03:14:00,
2013-01-31 19:19:00,51.4,46.7,30.22,South,172,0.0,2.0,84,0.00,,,0.00,Wunderground v.1.15,2013-02-01 03:19:00,
2013-01-31 19:20:00,51.4,46.7,30.22,South,173,0.0,2.0,84,0.00,,,0.00,Wunderground v.1.15,2013-02-01 03:20:00,
2013-01-31 19:21:00,51.4,46.7,30.22,South,172,0.0,2.0,84,0.00,,,0.00,Wunderground v.1.15,2013-02-01 03:21:00,
2013-01-31 19:23:00,51.2,46.5,30.22,South,172,0.0,2.0,84,0.00,,,0.00,Wunderground v.1.15,2013-02-01 03:23:00,
2013-01-31 19:27:00,51.0,46.6,30.22,South,173,0.0,2.0,85,0.00,,,0.00,Wunderground v.1.15,2013-02-01 03:27:00,
2013-01-31 19:29:00,50.9,46.6,30.22,South,172,0.0,2.0,85,0.00,,,0.00,Wunderground v.1.15,2013-02-01 03:29:00,
2013-01-31 19:30:00,50.9,46.6,30.22,South,173,0.0,2.0,85,0.00,,,0.00,Wunderground v.1.15,2013-02-01 03:30:00,
2013-01-31 19:32:00,50.7,46.4,30.21,South,172,0.0,2.0,85,0.00,,,0.00,Wunderground v.1.15,2013-02-01 03:32:00,
2013-01-31 19:33:00,50.7,46.4,30.22,South,173,0.0,2.0,85,0.00,,,0.00,Wunderground v.1.15,2013-02-01 03:33:00,
2013-01-31 19:35:00,50.6,46.6,30.22,South,173,0.0,2.0,86,0.00,,,0.00,Wunderground v.1.15,2013-02-01 03:35:00,
2013-01-31 19:38:00,50.6,46.6,30.22,South,172,0.0,2.0,86,0.00,,,0.00,Wunderground v.1.15,2013-02-01 03:38:00,
2013-01-31 19:40:00,50.4,46.4,30.21,South,172,0.0,2.0,86,0.00,,,0.00,Wunderground v.1.15,2013-02-01 03:40:00,
2013-01-31 19:43:00,50.3,46.3,30.22,South,172,0.0,2.0,86,0.00,,,0.00,Wunderground v.1.15,2013-02-01 03:43:00,
2013-01-31 19:44:00,50.2,46.2,30.22,South,173,0.0,2.0,86,0.00,,,0.00,Wunderground v.1.15,2013-02-01 03:44:00,
2013-01-31 19:47:00,50.0,46.0,30.22,South,173,0.0,2.0,86,0.00,,,0.00,Wunderground v.1.15,2013-02-01 03:47:00,
2013-01-31 19:50:00,49.8,45.8,30.22,South,172,0.0,2.0,86,0.00,,,0.00,Wunderground v.1.15,2013-02-01 03:50:00,
2013-01-31 19:51:00,49.8,45.8,30.22,South,172,0.0,2.0,86,0.00,,,0.00,Wunderground v.1.15,2013-02-01 03:51:00,
2013-01-31 19:55:00,49.6,45.9,30.22,South,173,0.0,2.0,87,0.00,,,0.00,Wunderground v.1.15,2013-02-01 03:55:00,
2013-01-31 19:57:00,49.5,45.8,30.21,South,173,0.0,2.0,87,0.00,,,0.00,Wunderground v.1.15,2013-02-01 03:57:00,
2013-01-31 19:59:00,49.3,45.6,30.21,South,172,0.0,2.0,87,0.00,,,0.00,Wunderground v.1.15,2013-02-01 03:59:00,
2013-01-31 20:03:00,49.1,45.4,30.22,South,172,0.0,2.0,87,0.00,,,0.00,Wunderground v.1.15,2013-02-01 04:03:00,
2013-01-31 20:04:00,49.0,45.3,30.22,South,172,0.0,2.0,87,0.00,,,0.00,Wunderground v.1.15,2013-02-01 04:04:00,
2013-01-31 20:06:00,48.8,45.1,30.22,South,172,0.0,2.0,87,0.00,,,0.00,Wunderground v.1.15,2013-02-01 04:06:00,
2013-01-31 20:09:00,48.6,45.2,30.21,South,172,0.0,2.0,88,0.00,,,0.00,Wunderground v.1.15,2013-02-01 04:09:00,
2013-01-31 20:12:00,48.5,45.1,30.21,South,173,0.0,2.0,88,0.00,,,0.00,Wunderground v.1.15,2013-02-01 04:12:00,
2013-01-31 20:15:00,48.3,45.2,30.21,South,172,0.0,2.0,89,0.00,,,0.00,Wunderground v.1.15,2013-02-01 04:15:00,
2013-01-31 20:17:00,48.2,44.8,30.21,South,173,0.0,2.0,88,0.00,,,0.00,Wunderground v.1.15,2013-02-01 04:17:00,
2013-01-31 20:22:00,47.9,44.8,30.22,South,173,0.0,2.0,89,0.00,,,0.00,Wunderground v.1.15,2013-02-01 04:22:00,
2013-01-31 20:23:00,47.9,44.8,30.22,South,173,0.0,2.0,89,0.00,,,0.00,Wunderground v.1.15,2013-02-01 04:23:00,
2013-01-31 20:25:00,47.8,44.7,30.22,South,172,0.0,2.0,89,0.00,,,0.00,Wunderground v.1.15,2013-02-01 04:25:00,
2013-01-31 20:29:00,47.7,44.3,30.22,South,173,0.0,2.0,88,0.00,,,0.00,Wunderground v.1.15,2013-02-01 04:29:00,
2013-01-31 20:30:00,47.6,44.5,30.22,South,173,0.0,2.0,89,0.00,,,0.00,Wunderground v.1.15,2013-02-01 04:30:00,
2013-01-31 20:35:00,47.4,44.3,30.22,South,173,0.0,2.0,89,0.00,,,0.00,Wunderground v.1.15,2013-02-01 04:35:00,
2013-01-31 20:36:00,47.3,44.2,30.22,South,172,0.0,2.0,89,0.00,,,0.00,Wunderground v.1.15,2013-02-01 04:36:00,
2013-01-31 20:39:00,47.3,44.5,30.22,South,173,0.0,2.0,90,0.00,,,0.00,Wunderground v.1.15,2013-02-01 04:39:00,
2013-01-31 20:40:00,47.3,44.5,30.22,South,173,0.0,2.0,90,0.00,,,0.00,Wunderground v.1.15,2013-02-01 04:40:00,
2013-01-31 20:42:00,47.3,44.5,30.22,South,172,0.0,2.0,90,0.00,,,0.00,Wunderground v.1.15,2013-02-01 04:42:00,
2013-01-31 20:46:00,47.2,44.4,30.22,South,173,0.0,2.0,90,0.00,,,0.00,Wunderground v.1.15,2013-02-01 04:46:00,
2013-01-31 20:47:00,47.2,44.4,30.22,South,172,0.0,2.0,90,0.00,,,0.00,Wunderground v.1.15,2013-02-01 04:47:00,
2013-01-31 20:51:00,47.0,44.2,30.22,South,172,0.0,2.0,90,0.00,,,0.00,Wunderground v.1.15,2013-02-01 04:51:00,
2013-01-31 20:52:00,46.9,44.1,30.22,South,172,0.0,2.0,90,0.00,,,0.00,Wunderground v.1.15,2013-02-01 04:52:00,
2013-01-31 20:56:00,46.6,43.8,30.22,South,173,0.0,2.0,90,0.00,,,0.00,Wunderground v.1.15,2013-02-01 04:56:00,
2013-01-31 20:58:00,46.5,44.0,30.22,South,173,0.0,2.0,91,0.00,,,0.00,Wunderground v.1.15,2013-02-01 04:58:00,
2013-01-31 21:00:00,46.5,44.0,30.22,South,173,0.0,2.0,91,0.00,,,0.00,Wunderground v.1.15,2013-02-01 05:00:00,
2013-01-31 21:01:00,46.4,43.9,30.22,South,173,0.0,2.0,91,0.00,,,0.00,Wunderground v.1.15,2013-02-01 05:01:00,
2013-01-31 21:03:00,46.3,43.8,30.22,South,173,0.0,2.0,91,0.00,,,0.00,Wunderground v.1.15,2013-02-01 05:03:00,
2013-01-31 21:04:00,46.3,43.8,30.22,South,172,0.0,2.0,91,0.00,,,0.00,Wunderground v.1.15,2013-02-01 05:04:00,
2013-01-31 21:09:00,46.5,44.3,30.22,South,172,1.0,2.0,92,0.00,,,0.00,Wunderground v.1.15,2013-02-01 05:09:00,
2013-01-31 21:10:00,46.5,44.3,30.22,South,172,1.0,2.0,92,0.00,,,0.00,Wunderground v.1.15,2013-02-01 05:10:00,
2013-01-31 21:11:00,46.6,44.4,30.22,South,173,1.0,2.0,92,0.00,,,0.00,Wunderground v.1.15,2013-02-01 05:11:00,
2013-01-31 21:15:00,46.3,44.1,30.22,South,173,1.0,2.0,92,0.00,,,0.00,Wunderground v.1.15,2013-02-01 05:15:00,
2013-01-31 21:18:00,45.9,43.4,30.22,South,172,1.0,2.0,91,0.00,,,0.00,Wunderground v.1.15,2013-02-01 05:18:00,
2013-01-31 21:19:00,45.7,43.2,30.22,South,173,1.0,2.0,91,0.00,,,0.00,Wunderground v.1.15,2013-02-01 05:19:00,
2013-01-31 21:21:00,45.4,42.9,30.22,South,173,1.0,2.0,91,0.00,,,0.00,Wunderground v.1.15,2013-02-01 05:21:00,
2013-01-31 21:23:00,45.1,42.6,30.22,South,173,1.0,2.0,91,0.00,,,0.00,Wunderground v.1.15,2013-02-01 05:23:00,
2013-01-31 21:27:00,44.5,42.0,30.22,South,173,1.0,2.0,91,0.00,,,0.00,Wunderground v.1.15,2013-02-01 05:27:00,
2013-01-31 21:28:00,44.4,41.9,30.22,South,172,1.0,2.0,91,0.00,,,0.00,Wunderground v.1.15,2013-02-01 05:28:00,
2013-01-31 21:29:00,44.3,41.8,30.22,South,173,0.0,2.0,91,0.00,,,0.00,Wunderground v.1.15,2013-02-01 05:29:00,
2013-01-31 21:33:00,44.1,41.9,30.22,South,173,0.0,2.0,92,0.00,,,0.00,Wunderground v.1.15,2013-02-01 05:33:00,
2013-01-31 21:35:00,44.1,41.9,30.22,South,173,0.0,2.0,92,0.00,,,0.00,Wunderground v.1.15,2013-02-01 05:35:00,
2013-01-31 21:39:00,44.0,41.8,30.22,South,173,0.0,2.0,92,0.00,,,0.00,Wunderground v.1.15,2013-02-01 05:39:00,
2013-01-31 21:43:00,44.0,42.1,30.22,South,172,0.0,2.0,93,0.00,,,0.00,Wunderground v.1.15,2013-02-01 05:43:00,
2013-01-31 21:47:00,44.0,42.1,30.22,South,173,0.0,2.0,93,0.00,,,0.00,Wunderground v.1.15,2013-02-01 05:47:00,
2013-01-31 21:50:00,43.8,41.9,30.22,South,172,0.0,2.0,93,0.00,,,0.00,Wunderground v.1.15,2013-02-01 05:50:00,
2013-01-31 21:51:00,43.8,41.9,30.22,South,173,0.0,2.0,93,0.00,,,0.00,Wunderground v.1.15,2013-02-01 05:51:00,
2013-01-31 21:53:00,43.7,41.8,30.22,South,173,0.0,2.0,93,0.00,,,0.00,Wunderground v.1.15,2013-02-01 05:53:00,
2013-01-31 21:57:00,43.7,41.8,30.22,South,172,0.0,2.0,93,0.00,,,0.00,Wunderground v.1.15,2013-02-01 05:57:00,
2013-01-31 21:59:00,43.8,42.2,30.22,South,173,0.0,2.0,94,0.00,,,0.00,Wunderground v.1.15,2013-02-01 05:59:00,
2013-01-31 22:01:00,43.8,41.9,30.22,South,172,0.0,2.0,93,0.00,,,0.00,Wunderground v.1.15,2013-02-01 06:01:00,
2013-01-31 22:02:00,43.7,41.8,30.22,South,173,0.0,2.0,93,0.00,,,0.00,Wunderground v.1.15,2013-02-01 06:02:00,
2013-01-31 22:07:00,43.5,41.6,30.22,South,172,0.0,2.0,93,0.00,,,0.00,Wunderground v.1.15,2013-02-01 06:07:00,
2013-01-31 22:10:00,43.5,41.9,30.22,South,173,0.0,2.0,94,0.00,,,0.00,Wunderground v.1.15,2013-02-01 06:10:00,
2013-01-31 22:13:00,43.4,41.5,30.22,South,173,0.0,2.0,93,0.00,,,0.00,Wunderground v.1.15,2013-02-01 06:13:00,
2013-01-31 22:16:00,43.4,41.8,30.22,South,173,0.0,2.0,94,0.00,,,0.00,Wunderground v.1.15,2013-02-01 06:16:00,
2013-01-31 22:18:00,43.3,41.7,30.22,South,173,0.0,2.0,94,0.00,,,0.00,Wunderground v.1.15,2013-02-01 06:18:00,
2013-01-31 22:21:00,43.3,41.7,30.22,South,173,0.0,2.0,94,0.00,,,0.00,Wunderground v.1.15,2013-02-01 06:21:00,
2013-01-31 22:23:00,43.2,41.6,30.22,South,172,0.0,2.0,94,0.00,,,0.00,Wunderground v.1.15,2013-02-01 06:23:00,
2013-01-31 22:27:00,43.3,41.7,30.22,South,172,0.0,2.0,94,0.00,,,0.00,Wunderground v.1.15,2013-02-01 06:27:00,
2013-01-31 22:30:00,43.3,41.7,30.22,South,173,0.0,2.0,94,0.00,,,0.00,Wunderground v.1.15,2013-02-01 06:30:00,
2013-01-31 22:35:00,43.1,41.5,30.22,South,173,0.0,2.0,94,0.00,,,0.00,Wunderground v.1.15,2013-02-01 06:35:00,
2013-01-31 22:37:00,43.0,41.4,30.22,South,172,0.0,2.0,94,0.00,,,0.00,Wunderground v.1.15,2013-02-01 06:37:00,
2013-01-31 22:39:00,42.9,41.3,30.22,South,172,0.0,2.0,94,0.00,,,0.00,Wunderground v.1.15,2013-02-01 06:39:00,
2013-01-31 22:44:00,42.9,41.3,30.22,South,172,0.0,2.0,94,0.00,,,0.00,Wunderground v.1.15,2013-02-01 06:44:00,
2013-01-31 22:46:00,42.9,41.3,30.22,South,172,0.0,2.0,94,0.00,,,0.00,Wunderground v.1.15,2013-02-01 06:46:00,
2013-01-31 22:47:00,43.0,41.4,30.22,South,173,0.0,2.0,94,0.00,,,0.00,Wunderground v.1.15,2013-02-01 06:47:00,
2013-01-31 22:52:00,43.2,41.9,30.22,South,172,0.0,2.0,95,0.00,,,0.00,Wunderground v.1.15,2013-02-01 06:52:00,
2013-01-31 22:56:00,43.4,42.1,30.22,South,172,0.0,2.0,95,0.00,,,0.00,Wunderground v.1.15,2013-02-01 06:56:00,
2013-01-31 22:58:00,43.4,42.1,30.22,South,172,0.0,2.0,95,0.00,,,0.00,Wunderground v.1.15,2013-02-01 06:58:00,
2013-01-31 23:03:00,43.2,41.6,30.22,South,172,0.0,1.0,94,0.00,,,0.00,Wunderground v.1.15,2013-02-01 07:03:00,
2013-01-31 23:09:00,42.6,41.0,30.22,South,173,0.0,1.0,94,0.00,,,0.00,Wunderground v.1.15,2013-02-01 07:09:00,
2013-01-31 23:10:00,42.5,40.9,30.23,South,173,0.0,1.0,94,0.00,,,0.00,Wunderground v.1.15,2013-02-01 07:10:00,
2013-01-31 23:11:00,42.4,40.8,30.23,South,172,0.0,1.0,94,0.00,,,0.00,Wunderground v.1.15,2013-02-01 07:11:00,
2013-01-31 23:17:00,42.1,40.5,30.23,South,172,0.0,1.0,94,0.00,,,0.00,Wunderground v.1.15,2013-02-01 07:17:00,
2013-01-31 23:19:00,42.1,40.5,30.22,South,172,0.0,1.0,94,0.00,,,0.00,Wunderground v.1.15,2013-02-01 07:19:00,
2013-01-31 23:23:00,42.1,40.8,30.22,South,172,0.0,1.0,95,0.00,,,0.00,Wunderground v.1.15,2013-02-01 07:23:00,
2013-01-31 23:26:00,41.9,40.3,30.23,South,172,0.0,1.0,94,0.00,,,0.00,Wunderground v.1.15,2013-02-01 07:26:00,
2013-01-31 23:27:00,41.9,40.6,30.23,South,173,0.0,1.0,95,0.00,,,0.00,Wunderground v.1.15,2013-02-01 07:27:00,
2013-01-31 23:31:00,41.7,40.1,30.22,South,172,0.0,1.0,94,0.00,,,0.00,Wunderground v.1.15,2013-02-01 07:31:00,
2013-01-31 23:32:00,41.7,40.1,30.22,South,173,0.0,1.0,94,0.00,,,0.00,Wunderground v.1.15,2013-02-01 07:32:00,
2013-01-31 23:37:00,41.6,40.3,30.22,South,172,0.0,1.0,95,0.00,,,0.00,Wunderground v.1.15,2013-02-01 07:37:00,
2013-01-31 23:38:00,41.6,40.3,30.22,South,173,0.0,1.0,95,0.00,,,0.00,Wunderground v.1.15,2013-02-01 07:38:00,
2013-01-31 23:44:00,41.5,40.2,30.22,South,172,0.0,1.0,95,0.00,,,0.00,Wunderground v.1.15,2013-02-01 07:44:00,
2013-01-31 23:45:00,41.4,40.1,30.22,South,173,0.0,1.0,95,0.00,,,0.00,Wunderground v.1.15,2013-02-01 07:45:00,
2013-01-31 23:48:00,41.3,40.0,30.22,South,172,0.0,1.0,95,0.00,,,0.00,Wunderground v.1.15,2013-02-01 07:48:00,
2013-01-31 23:50:00,41.3,40.0,30.22,South,173,0.0,1.0,95,0.00,,,0.00,Wunderground v.1.15,2013-02-01 07:50:00,
2013-01-31 23:52:00,41.4,40.1,30.22,South,172,1.0,1.0,95,0.00,,,0.00,Wunderground v.1.15,2013-02-01 07:52:00,
2013-01-31 23:53:00,41.5,40.2,30.22,South,174,1.0,1.0,95,0.00,,,0.00,Wunderground v.1.15,2013-02-01 07:53:00,
2013-01-31 23:56:00,41.4,40.1,30.22,South,172,1.0,1.0,95,0.00,,,0.00,Wunderground v.1.15,2013-02-01 07:56:00,
2013-01-31 23:59:00,41.2,39.9,30.22,South,172,1.0,1.0,95,0.00,,,0.00,Wunderground v.1.15,2013-02-01 07:59:00,